<?xml version="1.0" encoding="UTF-8" standalone="no" ?>
<gpx xmlns="http://www.topografix.com/GPX/1/1" xmlns:xsi="http://www.w3.org/2001/XMLSchema-instance" xsi:schemaLocation="http://www.topografix.com/GPX/1/1 http://www.topografix.com/GPX/1/1/gpx.xsd" version="1.1" creator="VisuGPX - https://www.visugpx.com">
  <metadata>
    <name>64 - RAQUETTES - Pic de Canaourouye - Depuis parking de la cabane de l'Araille plateau d'Anéou</name>
    <desc><![CDATA[1ère sortie de la saison et peut être la dernière ?]]></desc>
  </metadata>
  <trk>
    <name><![CDATA[ACTIVE LOG]]></name>
    <trkseg>
      <trkpt lat="42.81453" lon="-0.41812">
        <ele>1738.681640625</ele>
        <time>2015-03-12T09:41:40Z</time>
      </trkpt>
      <trkpt lat="42.81453" lon="-0.41812">
        <ele>1738.681640625</ele>
        <time>2015-03-12T09:41:41Z</time>
      </trkpt>
      <trkpt lat="42.81453" lon="-0.41812">
        <ele>1737.2395019531</ele>
        <time>2015-03-12T09:41:42Z</time>
      </trkpt>
      <trkpt lat="42.81454" lon="-0.41808">
        <ele>1736.2783203125</ele>
        <time>2015-03-12T09:42:29Z</time>
      </trkpt>
      <trkpt lat="42.81454" lon="-0.4181">
        <ele>1736.7587890625</ele>
        <time>2015-03-12T09:42:35Z</time>
      </trkpt>
      <trkpt lat="42.81453" lon="-0.41815">
        <ele>1736.2783203125</ele>
        <time>2015-03-12T09:42:38Z</time>
      </trkpt>
      <trkpt lat="42.81448" lon="-0.41826">
        <ele>1735.7976074219</ele>
        <time>2015-03-12T09:42:52Z</time>
      </trkpt>
      <trkpt lat="42.81442" lon="-0.41835">
        <ele>1732.4331054688</ele>
        <time>2015-03-12T09:43:07Z</time>
      </trkpt>
      <trkpt lat="42.81438" lon="-0.4184">
        <ele>1731.9523925781</ele>
        <time>2015-03-12T09:43:27Z</time>
      </trkpt>
      <trkpt lat="42.81437" lon="-0.4184">
        <ele>1731.9523925781</ele>
        <time>2015-03-12T09:43:57Z</time>
      </trkpt>
      <trkpt lat="42.81437" lon="-0.4184">
        <ele>1728.587890625</ele>
        <time>2015-03-12T09:43:58Z</time>
      </trkpt>
      <trkpt lat="42.81438" lon="-0.4184">
        <ele>1731.9523925781</ele>
        <time>2015-03-12T09:43:59Z</time>
      </trkpt>
      <trkpt lat="42.81437" lon="-0.4184">
        <ele>1726.1845703125</ele>
        <time>2015-03-12T09:44:01Z</time>
      </trkpt>
      <trkpt lat="42.81437" lon="-0.4184">
        <ele>1730.0297851562</ele>
        <time>2015-03-12T09:44:02Z</time>
      </trkpt>
      <trkpt lat="42.81438" lon="-0.41839">
        <ele>1734.8364257812</ele>
        <time>2015-03-12T09:44:03Z</time>
      </trkpt>
      <trkpt lat="42.81438" lon="-0.41839">
        <ele>1731.9523925781</ele>
        <time>2015-03-12T09:44:04Z</time>
      </trkpt>
      <trkpt lat="42.81437" lon="-0.41835">
        <ele>1728.1071777344</ele>
        <time>2015-03-12T09:44:18Z</time>
      </trkpt>
      <trkpt lat="42.81437" lon="-0.41836">
        <ele>1731.4716796875</ele>
        <time>2015-03-12T09:44:19Z</time>
      </trkpt>
      <trkpt lat="42.81437" lon="-0.41835">
        <ele>1732.9135742188</ele>
        <time>2015-03-12T09:44:23Z</time>
      </trkpt>
      <trkpt lat="42.81437" lon="-0.41835">
        <ele>1731.9523925781</ele>
        <time>2015-03-12T09:44:25Z</time>
      </trkpt>
      <trkpt lat="42.81437" lon="-0.41836">
        <ele>1732.4331054688</ele>
        <time>2015-03-12T09:44:33Z</time>
      </trkpt>
      <trkpt lat="42.81438" lon="-0.41838">
        <ele>1731.4716796875</ele>
        <time>2015-03-12T09:45:02Z</time>
      </trkpt>
      <trkpt lat="42.81437" lon="-0.41838">
        <ele>1732.4331054688</ele>
        <time>2015-03-12T09:45:04Z</time>
      </trkpt>
      <trkpt lat="42.81439" lon="-0.41838">
        <ele>1731.9523925781</ele>
        <time>2015-03-12T09:45:30Z</time>
      </trkpt>
      <trkpt lat="42.81438" lon="-0.4184">
        <ele>1731.9523925781</ele>
        <time>2015-03-12T09:46:02Z</time>
      </trkpt>
      <trkpt lat="42.81437" lon="-0.41841">
        <ele>1732.4331054688</ele>
        <time>2015-03-12T09:46:38Z</time>
      </trkpt>
      <trkpt lat="42.81438" lon="-0.4184">
        <ele>1732.9135742188</ele>
        <time>2015-03-12T09:47:52Z</time>
      </trkpt>
      <trkpt lat="42.81438" lon="-0.41839">
        <ele>1733.875</ele>
        <time>2015-03-12T09:48:06Z</time>
      </trkpt>
      <trkpt lat="42.81438" lon="-0.41841">
        <ele>1733.875</ele>
        <time>2015-03-12T09:48:44Z</time>
      </trkpt>
      <trkpt lat="42.81438" lon="-0.41841">
        <ele>1734.3557128906</ele>
        <time>2015-03-12T09:49:08Z</time>
      </trkpt>
      <trkpt lat="42.81438" lon="-0.41848">
        <ele>1733.3942871094</ele>
        <time>2015-03-12T09:49:22Z</time>
      </trkpt>
      <trkpt lat="42.81437" lon="-0.41862">
        <ele>1730.0297851562</ele>
        <time>2015-03-12T09:49:38Z</time>
      </trkpt>
      <trkpt lat="42.81437" lon="-0.41879">
        <ele>1726.1845703125</ele>
        <time>2015-03-12T09:49:56Z</time>
      </trkpt>
      <trkpt lat="42.81436" lon="-0.41889">
        <ele>1725.7038574219</ele>
        <time>2015-03-12T09:50:05Z</time>
      </trkpt>
      <trkpt lat="42.81434" lon="-0.41916">
        <ele>1722.8198242188</ele>
        <time>2015-03-12T09:50:25Z</time>
      </trkpt>
      <trkpt lat="42.81433" lon="-0.41927">
        <ele>1721.3776855469</ele>
        <time>2015-03-12T09:50:44Z</time>
      </trkpt>
      <trkpt lat="42.81427" lon="-0.41943">
        <ele>1723.3005371094</ele>
        <time>2015-03-12T09:51:01Z</time>
      </trkpt>
      <trkpt lat="42.81415" lon="-0.41971">
        <ele>1723.3005371094</ele>
        <time>2015-03-12T09:51:23Z</time>
      </trkpt>
      <trkpt lat="42.81405" lon="-0.41995">
        <ele>1723.7810058594</ele>
        <time>2015-03-12T09:51:43Z</time>
      </trkpt>
      <trkpt lat="42.81395" lon="-0.42015">
        <ele>1724.7426757812</ele>
        <time>2015-03-12T09:52:02Z</time>
      </trkpt>
      <trkpt lat="42.81382" lon="-0.42034">
        <ele>1725.2231445312</ele>
        <time>2015-03-12T09:52:22Z</time>
      </trkpt>
      <trkpt lat="42.81368" lon="-0.4205">
        <ele>1724.7426757812</ele>
        <time>2015-03-12T09:52:42Z</time>
      </trkpt>
      <trkpt lat="42.81356" lon="-0.42066">
        <ele>1724.7426757812</ele>
        <time>2015-03-12T09:52:58Z</time>
      </trkpt>
      <trkpt lat="42.81355" lon="-0.42069">
        <ele>1724.2619628906</ele>
        <time>2015-03-12T09:53:01Z</time>
      </trkpt>
      <trkpt lat="42.81361" lon="-0.42086">
        <ele>1723.7810058594</ele>
        <time>2015-03-12T09:53:20Z</time>
      </trkpt>
      <trkpt lat="42.81365" lon="-0.42107">
        <ele>1725.2231445312</ele>
        <time>2015-03-12T09:53:37Z</time>
      </trkpt>
      <trkpt lat="42.81365" lon="-0.42126">
        <ele>1727.6264648438</ele>
        <time>2015-03-12T09:53:57Z</time>
      </trkpt>
      <trkpt lat="42.81363" lon="-0.42146">
        <ele>1729.068359375</ele>
        <time>2015-03-12T09:54:15Z</time>
      </trkpt>
      <trkpt lat="42.8136" lon="-0.42163">
        <ele>1730.0297851562</ele>
        <time>2015-03-12T09:54:30Z</time>
      </trkpt>
      <trkpt lat="42.81356" lon="-0.42182">
        <ele>1731.4716796875</ele>
        <time>2015-03-12T09:54:48Z</time>
      </trkpt>
      <trkpt lat="42.8135" lon="-0.42206">
        <ele>1732.4331054688</ele>
        <time>2015-03-12T09:55:08Z</time>
      </trkpt>
      <trkpt lat="42.81346" lon="-0.42222">
        <ele>1732.4331054688</ele>
        <time>2015-03-12T09:55:24Z</time>
      </trkpt>
      <trkpt lat="42.81343" lon="-0.42241">
        <ele>1732.9135742188</ele>
        <time>2015-03-12T09:55:40Z</time>
      </trkpt>
      <trkpt lat="42.81339" lon="-0.42264">
        <ele>1733.875</ele>
        <time>2015-03-12T09:55:59Z</time>
      </trkpt>
      <trkpt lat="42.81338" lon="-0.42283">
        <ele>1737.2395019531</ele>
        <time>2015-03-12T09:56:14Z</time>
      </trkpt>
      <trkpt lat="42.81335" lon="-0.42304">
        <ele>1738.681640625</ele>
        <time>2015-03-12T09:56:33Z</time>
      </trkpt>
      <trkpt lat="42.81334" lon="-0.4233">
        <ele>1740.6042480469</ele>
        <time>2015-03-12T09:56:54Z</time>
      </trkpt>
      <trkpt lat="42.81332" lon="-0.42352">
        <ele>1742.0463867188</ele>
        <time>2015-03-12T09:57:13Z</time>
      </trkpt>
      <trkpt lat="42.81331" lon="-0.42374">
        <ele>1744.4494628906</ele>
        <time>2015-03-12T09:57:31Z</time>
      </trkpt>
      <trkpt lat="42.81331" lon="-0.42395">
        <ele>1745.8916015625</ele>
        <time>2015-03-12T09:57:50Z</time>
      </trkpt>
      <trkpt lat="42.81335" lon="-0.4242">
        <ele>1747.8142089844</ele>
        <time>2015-03-12T09:58:11Z</time>
      </trkpt>
      <trkpt lat="42.81331" lon="-0.42444">
        <ele>1747.8142089844</ele>
        <time>2015-03-12T09:58:32Z</time>
      </trkpt>
      <trkpt lat="42.81329" lon="-0.42452">
        <ele>1749.2561035156</ele>
        <time>2015-03-12T09:58:48Z</time>
      </trkpt>
      <trkpt lat="42.81328" lon="-0.42452">
        <ele>1747.8142089844</ele>
        <time>2015-03-12T09:58:58Z</time>
      </trkpt>
      <trkpt lat="42.81328" lon="-0.42452">
        <ele>1748.2946777344</ele>
        <time>2015-03-12T09:59:49Z</time>
      </trkpt>
      <trkpt lat="42.81328" lon="-0.4245">
        <ele>1749.7368164062</ele>
        <time>2015-03-12T10:00:03Z</time>
      </trkpt>
      <trkpt lat="42.81329" lon="-0.42452">
        <ele>1749.2561035156</ele>
        <time>2015-03-12T10:00:26Z</time>
      </trkpt>
      <trkpt lat="42.81328" lon="-0.42453">
        <ele>1749.2561035156</ele>
        <time>2015-03-12T10:00:53Z</time>
      </trkpt>
      <trkpt lat="42.81327" lon="-0.42453">
        <ele>1749.2561035156</ele>
        <time>2015-03-12T10:02:05Z</time>
      </trkpt>
      <trkpt lat="42.81327" lon="-0.42465">
        <ele>1748.2946777344</ele>
        <time>2015-03-12T10:02:20Z</time>
      </trkpt>
      <trkpt lat="42.81326" lon="-0.42468">
        <ele>1748.2946777344</ele>
        <time>2015-03-12T10:02:23Z</time>
      </trkpt>
      <trkpt lat="42.81322" lon="-0.42493">
        <ele>1748.775390625</ele>
        <time>2015-03-12T10:02:43Z</time>
      </trkpt>
      <trkpt lat="42.8132" lon="-0.42517">
        <ele>1748.2946777344</ele>
        <time>2015-03-12T10:03:02Z</time>
      </trkpt>
      <trkpt lat="42.81318" lon="-0.42535">
        <ele>1748.775390625</ele>
        <time>2015-03-12T10:03:17Z</time>
      </trkpt>
      <trkpt lat="42.81313" lon="-0.42559">
        <ele>1751.6594238281</ele>
        <time>2015-03-12T10:03:39Z</time>
      </trkpt>
      <trkpt lat="42.81307" lon="-0.42578">
        <ele>1753.58203125</ele>
        <time>2015-03-12T10:03:59Z</time>
      </trkpt>
      <trkpt lat="42.81305" lon="-0.42583">
        <ele>1755.5046386719</ele>
        <time>2015-03-12T10:04:04Z</time>
      </trkpt>
      <trkpt lat="42.81298" lon="-0.42598">
        <ele>1757.908203125</ele>
        <time>2015-03-12T10:04:22Z</time>
      </trkpt>
      <trkpt lat="42.81291" lon="-0.42616">
        <ele>1760.3112792969</ele>
        <time>2015-03-12T10:04:43Z</time>
      </trkpt>
      <trkpt lat="42.81288" lon="-0.42625">
        <ele>1761.2727050781</ele>
        <time>2015-03-12T10:04:56Z</time>
      </trkpt>
      <trkpt lat="42.81281" lon="-0.42651">
        <ele>1763.67578125</ele>
        <time>2015-03-12T10:05:19Z</time>
      </trkpt>
      <trkpt lat="42.81274" lon="-0.4267">
        <ele>1765.1179199219</ele>
        <time>2015-03-12T10:05:38Z</time>
      </trkpt>
      <trkpt lat="42.81271" lon="-0.42698">
        <ele>1767.0405273438</ele>
        <time>2015-03-12T10:06:00Z</time>
      </trkpt>
      <trkpt lat="42.81268" lon="-0.4272">
        <ele>1767.5209960938</ele>
        <time>2015-03-12T10:06:19Z</time>
      </trkpt>
      <trkpt lat="42.81267" lon="-0.42722">
        <ele>1768.0017089844</ele>
        <time>2015-03-12T10:06:21Z</time>
      </trkpt>
      <trkpt lat="42.81256" lon="-0.42747">
        <ele>1769.4438476562</ele>
        <time>2015-03-12T10:06:44Z</time>
      </trkpt>
      <trkpt lat="42.81245" lon="-0.42772">
        <ele>1771.8469238281</ele>
        <time>2015-03-12T10:07:08Z</time>
      </trkpt>
      <trkpt lat="42.81238" lon="-0.42793">
        <ele>1773.7697753906</ele>
        <time>2015-03-12T10:07:26Z</time>
      </trkpt>
      <trkpt lat="42.81235" lon="-0.42813">
        <ele>1776.6538085938</ele>
        <time>2015-03-12T10:07:43Z</time>
      </trkpt>
      <trkpt lat="42.81235" lon="-0.42814">
        <ele>1777.1345214844</ele>
        <time>2015-03-12T10:07:44Z</time>
      </trkpt>
      <trkpt lat="42.81232" lon="-0.42841">
        <ele>1776.1730957031</ele>
        <time>2015-03-12T10:08:04Z</time>
      </trkpt>
      <trkpt lat="42.81231" lon="-0.42873">
        <ele>1776.1730957031</ele>
        <time>2015-03-12T10:08:25Z</time>
      </trkpt>
      <trkpt lat="42.81231" lon="-0.42885">
        <ele>1776.1730957031</ele>
        <time>2015-03-12T10:08:40Z</time>
      </trkpt>
      <trkpt lat="42.8123" lon="-0.42892">
        <ele>1775.6923828125</ele>
        <time>2015-03-12T10:08:45Z</time>
      </trkpt>
      <trkpt lat="42.81231" lon="-0.42896">
        <ele>1775.6923828125</ele>
        <time>2015-03-12T10:08:49Z</time>
      </trkpt>
      <trkpt lat="42.8123" lon="-0.42904">
        <ele>1775.2116699219</ele>
        <time>2015-03-12T10:08:55Z</time>
      </trkpt>
      <trkpt lat="42.81228" lon="-0.42932">
        <ele>1774.7312011719</ele>
        <time>2015-03-12T10:09:15Z</time>
      </trkpt>
      <trkpt lat="42.81226" lon="-0.42955">
        <ele>1774.2504882812</ele>
        <time>2015-03-12T10:09:33Z</time>
      </trkpt>
      <trkpt lat="42.81224" lon="-0.42976">
        <ele>1776.1730957031</ele>
        <time>2015-03-12T10:09:51Z</time>
      </trkpt>
      <trkpt lat="42.81222" lon="-0.43001">
        <ele>1775.6923828125</ele>
        <time>2015-03-12T10:10:10Z</time>
      </trkpt>
      <trkpt lat="42.8122" lon="-0.43026">
        <ele>1776.1730957031</ele>
        <time>2015-03-12T10:10:29Z</time>
      </trkpt>
      <trkpt lat="42.81219" lon="-0.43042">
        <ele>1777.6149902344</ele>
        <time>2015-03-12T10:10:42Z</time>
      </trkpt>
      <trkpt lat="42.81216" lon="-0.43063">
        <ele>1778.095703125</ele>
        <time>2015-03-12T10:10:59Z</time>
      </trkpt>
      <trkpt lat="42.81213" lon="-0.43087">
        <ele>1779.0568847656</ele>
        <time>2015-03-12T10:11:19Z</time>
      </trkpt>
      <trkpt lat="42.81212" lon="-0.43101">
        <ele>1783.3828125</ele>
        <time>2015-03-12T10:11:33Z</time>
      </trkpt>
      <trkpt lat="42.81212" lon="-0.43118">
        <ele>1786.2668457031</ele>
        <time>2015-03-12T10:11:51Z</time>
      </trkpt>
      <trkpt lat="42.81213" lon="-0.43137">
        <ele>1787.7087402344</ele>
        <time>2015-03-12T10:12:10Z</time>
      </trkpt>
      <trkpt lat="42.81213" lon="-0.43154">
        <ele>1789.1508789062</ele>
        <time>2015-03-12T10:12:27Z</time>
      </trkpt>
      <trkpt lat="42.81215" lon="-0.43171">
        <ele>1792.515625</ele>
        <time>2015-03-12T10:12:44Z</time>
      </trkpt>
      <trkpt lat="42.81216" lon="-0.43186">
        <ele>1794.4379882812</ele>
        <time>2015-03-12T10:13:00Z</time>
      </trkpt>
      <trkpt lat="42.81218" lon="-0.43203">
        <ele>1795.8801269531</ele>
        <time>2015-03-12T10:13:18Z</time>
      </trkpt>
      <trkpt lat="42.81221" lon="-0.43223">
        <ele>1798.7639160156</ele>
        <time>2015-03-12T10:13:36Z</time>
      </trkpt>
      <trkpt lat="42.81224" lon="-0.43243">
        <ele>1801.6479492188</ele>
        <time>2015-03-12T10:13:55Z</time>
      </trkpt>
      <trkpt lat="42.81229" lon="-0.43263">
        <ele>1803.5705566406</ele>
        <time>2015-03-12T10:14:15Z</time>
      </trkpt>
      <trkpt lat="42.81228" lon="-0.43282">
        <ele>1805.9738769531</ele>
        <time>2015-03-12T10:14:33Z</time>
      </trkpt>
      <trkpt lat="42.81228" lon="-0.43298">
        <ele>1808.3771972656</ele>
        <time>2015-03-12T10:14:50Z</time>
      </trkpt>
      <trkpt lat="42.81229" lon="-0.43317">
        <ele>1810.2998046875</ele>
        <time>2015-03-12T10:15:08Z</time>
      </trkpt>
      <trkpt lat="42.81233" lon="-0.4334">
        <ele>1813.6643066406</ele>
        <time>2015-03-12T10:15:30Z</time>
      </trkpt>
      <trkpt lat="42.81236" lon="-0.4335">
        <ele>1813.6643066406</ele>
        <time>2015-03-12T10:15:49Z</time>
      </trkpt>
      <trkpt lat="42.81239" lon="-0.4337">
        <ele>1815.1064453125</ele>
        <time>2015-03-12T10:16:07Z</time>
      </trkpt>
      <trkpt lat="42.81241" lon="-0.4339">
        <ele>1817.5095214844</ele>
        <time>2015-03-12T10:16:26Z</time>
      </trkpt>
      <trkpt lat="42.81242" lon="-0.43408">
        <ele>1820.8745117188</ele>
        <time>2015-03-12T10:16:44Z</time>
      </trkpt>
      <trkpt lat="42.81242" lon="-0.43409">
        <ele>1821.3549804688</ele>
        <time>2015-03-12T10:16:45Z</time>
      </trkpt>
      <trkpt lat="42.81244" lon="-0.43431">
        <ele>1822.7971191406</ele>
        <time>2015-03-12T10:17:07Z</time>
      </trkpt>
      <trkpt lat="42.81245" lon="-0.4345">
        <ele>1825.2001953125</ele>
        <time>2015-03-12T10:17:26Z</time>
      </trkpt>
      <trkpt lat="42.81245" lon="-0.4346">
        <ele>1826.1616210938</ele>
        <time>2015-03-12T10:17:39Z</time>
      </trkpt>
      <trkpt lat="42.81246" lon="-0.43483">
        <ele>1829.5261230469</ele>
        <time>2015-03-12T10:17:58Z</time>
      </trkpt>
      <trkpt lat="42.81244" lon="-0.43503">
        <ele>1830.9682617188</ele>
        <time>2015-03-12T10:18:17Z</time>
      </trkpt>
      <trkpt lat="42.81244" lon="-0.43527">
        <ele>1833.3713378906</ele>
        <time>2015-03-12T10:18:39Z</time>
      </trkpt>
      <trkpt lat="42.81246" lon="-0.4355">
        <ele>1835.2939453125</ele>
        <time>2015-03-12T10:19:00Z</time>
      </trkpt>
      <trkpt lat="42.81247" lon="-0.43571">
        <ele>1837.6975097656</ele>
        <time>2015-03-12T10:19:20Z</time>
      </trkpt>
      <trkpt lat="42.8125" lon="-0.43595">
        <ele>1839.6201171875</ele>
        <time>2015-03-12T10:19:42Z</time>
      </trkpt>
      <trkpt lat="42.81252" lon="-0.43614">
        <ele>1842.0234375</ele>
        <time>2015-03-12T10:20:01Z</time>
      </trkpt>
      <trkpt lat="42.81255" lon="-0.4363">
        <ele>1842.9846191406</ele>
        <time>2015-03-12T10:20:17Z</time>
      </trkpt>
      <trkpt lat="42.81257" lon="-0.43648">
        <ele>1843.9460449219</ele>
        <time>2015-03-12T10:20:36Z</time>
      </trkpt>
      <trkpt lat="42.81259" lon="-0.43663">
        <ele>1846.3493652344</ele>
        <time>2015-03-12T10:20:51Z</time>
      </trkpt>
      <trkpt lat="42.81262" lon="-0.43679">
        <ele>1848.2717285156</ele>
        <time>2015-03-12T10:21:09Z</time>
      </trkpt>
      <trkpt lat="42.81264" lon="-0.43696">
        <ele>1850.6750488281</ele>
        <time>2015-03-12T10:21:28Z</time>
      </trkpt>
      <trkpt lat="42.81265" lon="-0.4371">
        <ele>1853.5593261719</ele>
        <time>2015-03-12T10:21:43Z</time>
      </trkpt>
      <trkpt lat="42.81266" lon="-0.43728">
        <ele>1856.923828125</ele>
        <time>2015-03-12T10:22:02Z</time>
      </trkpt>
      <trkpt lat="42.81266" lon="-0.43728">
        <ele>1856.923828125</ele>
        <time>2015-03-12T10:22:03Z</time>
      </trkpt>
      <trkpt lat="42.81265" lon="-0.43734">
        <ele>1856.4431152344</ele>
        <time>2015-03-12T10:22:27Z</time>
      </trkpt>
      <trkpt lat="42.81266" lon="-0.43734">
        <ele>1856.923828125</ele>
        <time>2015-03-12T10:23:02Z</time>
      </trkpt>
      <trkpt lat="42.81267" lon="-0.4373">
        <ele>1856.923828125</ele>
        <time>2015-03-12T10:23:21Z</time>
      </trkpt>
      <trkpt lat="42.81266" lon="-0.43734">
        <ele>1857.4045410156</ele>
        <time>2015-03-12T10:23:38Z</time>
      </trkpt>
      <trkpt lat="42.81266" lon="-0.43746">
        <ele>1857.8852539062</ele>
        <time>2015-03-12T10:24:00Z</time>
      </trkpt>
      <trkpt lat="42.81268" lon="-0.4376">
        <ele>1858.3657226562</ele>
        <time>2015-03-12T10:24:15Z</time>
      </trkpt>
      <trkpt lat="42.81269" lon="-0.4377">
        <ele>1860.2883300781</ele>
        <time>2015-03-12T10:24:24Z</time>
      </trkpt>
      <trkpt lat="42.81273" lon="-0.43798">
        <ele>1861.73046875</ele>
        <time>2015-03-12T10:24:46Z</time>
      </trkpt>
      <trkpt lat="42.81275" lon="-0.43813">
        <ele>1862.6916503906</ele>
        <time>2015-03-12T10:25:01Z</time>
      </trkpt>
      <trkpt lat="42.81275" lon="-0.43817">
        <ele>1862.6916503906</ele>
        <time>2015-03-12T10:25:19Z</time>
      </trkpt>
      <trkpt lat="42.81276" lon="-0.43834">
        <ele>1863.1723632812</ele>
        <time>2015-03-12T10:25:41Z</time>
      </trkpt>
      <trkpt lat="42.81278" lon="-0.43862">
        <ele>1866.0561523438</ele>
        <time>2015-03-12T10:26:02Z</time>
      </trkpt>
      <trkpt lat="42.8128" lon="-0.43883">
        <ele>1869.4211425781</ele>
        <time>2015-03-12T10:26:19Z</time>
      </trkpt>
      <trkpt lat="42.81281" lon="-0.43909">
        <ele>1870.3823242188</ele>
        <time>2015-03-12T10:26:39Z</time>
      </trkpt>
      <trkpt lat="42.81283" lon="-0.43937">
        <ele>1873.2663574219</ele>
        <time>2015-03-12T10:27:01Z</time>
      </trkpt>
      <trkpt lat="42.81284" lon="-0.43966">
        <ele>1874.7082519531</ele>
        <time>2015-03-12T10:27:23Z</time>
      </trkpt>
      <trkpt lat="42.81284" lon="-0.43982">
        <ele>1878.0727539062</ele>
        <time>2015-03-12T10:27:35Z</time>
      </trkpt>
      <trkpt lat="42.81284" lon="-0.44">
        <ele>1880.4760742188</ele>
        <time>2015-03-12T10:27:51Z</time>
      </trkpt>
      <trkpt lat="42.81285" lon="-0.44016">
        <ele>1883.8405761719</ele>
        <time>2015-03-12T10:28:07Z</time>
      </trkpt>
      <trkpt lat="42.81284" lon="-0.44033">
        <ele>1886.724609375</ele>
        <time>2015-03-12T10:28:21Z</time>
      </trkpt>
      <trkpt lat="42.81283" lon="-0.44053">
        <ele>1889.6086425781</ele>
        <time>2015-03-12T10:28:39Z</time>
      </trkpt>
      <trkpt lat="42.81283" lon="-0.44074">
        <ele>1892.0119628906</ele>
        <time>2015-03-12T10:29:00Z</time>
      </trkpt>
      <trkpt lat="42.81283" lon="-0.44094">
        <ele>1895.8571777344</ele>
        <time>2015-03-12T10:29:19Z</time>
      </trkpt>
      <trkpt lat="42.81283" lon="-0.44112">
        <ele>1899.2216796875</ele>
        <time>2015-03-12T10:29:39Z</time>
      </trkpt>
      <trkpt lat="42.81283" lon="-0.44112">
        <ele>1899.2216796875</ele>
        <time>2015-03-12T10:29:40Z</time>
      </trkpt>
      <trkpt lat="42.81284" lon="-0.44128">
        <ele>1902.1057128906</ele>
        <time>2015-03-12T10:29:58Z</time>
      </trkpt>
      <trkpt lat="42.81285" lon="-0.44132">
        <ele>1904.0285644531</ele>
        <time>2015-03-12T10:30:03Z</time>
      </trkpt>
      <trkpt lat="42.81286" lon="-0.44146">
        <ele>1905.9509277344</ele>
        <time>2015-03-12T10:30:24Z</time>
      </trkpt>
      <trkpt lat="42.81285" lon="-0.44164">
        <ele>1907.3930664062</ele>
        <time>2015-03-12T10:30:43Z</time>
      </trkpt>
      <trkpt lat="42.81279" lon="-0.44177">
        <ele>1910.7575683594</ele>
        <time>2015-03-12T10:31:00Z</time>
      </trkpt>
      <trkpt lat="42.81275" lon="-0.44183">
        <ele>1913.1608886719</ele>
        <time>2015-03-12T10:31:19Z</time>
      </trkpt>
      <trkpt lat="42.81268" lon="-0.44192">
        <ele>1916.5256347656</ele>
        <time>2015-03-12T10:31:35Z</time>
      </trkpt>
      <trkpt lat="42.81266" lon="-0.44202">
        <ele>1917.0063476562</ele>
        <time>2015-03-12T10:31:53Z</time>
      </trkpt>
      <trkpt lat="42.81267" lon="-0.44209">
        <ele>1919.8901367188</ele>
        <time>2015-03-12T10:32:07Z</time>
      </trkpt>
      <trkpt lat="42.81273" lon="-0.44222">
        <ele>1923.2548828125</ele>
        <time>2015-03-12T10:32:25Z</time>
      </trkpt>
      <trkpt lat="42.81276" lon="-0.4423">
        <ele>1924.2160644531</ele>
        <time>2015-03-12T10:32:48Z</time>
      </trkpt>
      <trkpt lat="42.81279" lon="-0.44243">
        <ele>1926.6193847656</ele>
        <time>2015-03-12T10:33:06Z</time>
      </trkpt>
      <trkpt lat="42.81279" lon="-0.44248">
        <ele>1927.1000976562</ele>
        <time>2015-03-12T10:33:25Z</time>
      </trkpt>
      <trkpt lat="42.8128" lon="-0.44249">
        <ele>1926.6193847656</ele>
        <time>2015-03-12T10:33:46Z</time>
      </trkpt>
      <trkpt lat="42.81282" lon="-0.44249">
        <ele>1928.0612792969</ele>
        <time>2015-03-12T10:34:06Z</time>
      </trkpt>
      <trkpt lat="42.81281" lon="-0.44248">
        <ele>1928.5419921875</ele>
        <time>2015-03-12T10:34:34Z</time>
      </trkpt>
      <trkpt lat="42.81279" lon="-0.44247">
        <ele>1928.5419921875</ele>
        <time>2015-03-12T10:35:14Z</time>
      </trkpt>
      <trkpt lat="42.81277" lon="-0.44246">
        <ele>1928.0612792969</ele>
        <time>2015-03-12T10:35:50Z</time>
      </trkpt>
      <trkpt lat="42.81276" lon="-0.44245">
        <ele>1928.5419921875</ele>
        <time>2015-03-12T10:36:18Z</time>
      </trkpt>
      <trkpt lat="42.81276" lon="-0.44246">
        <ele>1928.5419921875</ele>
        <time>2015-03-12T10:36:45Z</time>
      </trkpt>
      <trkpt lat="42.81278" lon="-0.44259">
        <ele>1929.0224609375</ele>
        <time>2015-03-12T10:37:07Z</time>
      </trkpt>
      <trkpt lat="42.81278" lon="-0.44272">
        <ele>1929.0224609375</ele>
        <time>2015-03-12T10:37:24Z</time>
      </trkpt>
      <trkpt lat="42.81279" lon="-0.4428">
        <ele>1929.5031738281</ele>
        <time>2015-03-12T10:37:46Z</time>
      </trkpt>
      <trkpt lat="42.81279" lon="-0.44293">
        <ele>1929.0224609375</ele>
        <time>2015-03-12T10:38:01Z</time>
      </trkpt>
      <trkpt lat="42.81277" lon="-0.44313">
        <ele>1927.5805664062</ele>
        <time>2015-03-12T10:38:20Z</time>
      </trkpt>
      <trkpt lat="42.81277" lon="-0.4432">
        <ele>1929.0224609375</ele>
        <time>2015-03-12T10:38:38Z</time>
      </trkpt>
      <trkpt lat="42.81277" lon="-0.44327">
        <ele>1929.0224609375</ele>
        <time>2015-03-12T10:38:56Z</time>
      </trkpt>
      <trkpt lat="42.81277" lon="-0.44346">
        <ele>1929.9838867188</ele>
        <time>2015-03-12T10:39:14Z</time>
      </trkpt>
      <trkpt lat="42.81276" lon="-0.44368">
        <ele>1931.9064941406</ele>
        <time>2015-03-12T10:39:33Z</time>
      </trkpt>
      <trkpt lat="42.81276" lon="-0.44387">
        <ele>1934.7907714844</ele>
        <time>2015-03-12T10:39:54Z</time>
      </trkpt>
      <trkpt lat="42.81276" lon="-0.44391">
        <ele>1934.3100585938</ele>
        <time>2015-03-12T10:40:20Z</time>
      </trkpt>
      <trkpt lat="42.81274" lon="-0.44407">
        <ele>1937.1938476562</ele>
        <time>2015-03-12T10:40:37Z</time>
      </trkpt>
      <trkpt lat="42.81274" lon="-0.44408">
        <ele>1937.1938476562</ele>
        <time>2015-03-12T10:40:38Z</time>
      </trkpt>
      <trkpt lat="42.81271" lon="-0.44428">
        <ele>1938.6359863281</ele>
        <time>2015-03-12T10:40:56Z</time>
      </trkpt>
      <trkpt lat="42.81271" lon="-0.4445">
        <ele>1939.5971679688</ele>
        <time>2015-03-12T10:41:17Z</time>
      </trkpt>
      <trkpt lat="42.81271" lon="-0.44464">
        <ele>1942.9616699219</ele>
        <time>2015-03-12T10:41:30Z</time>
      </trkpt>
      <trkpt lat="42.81269" lon="-0.44483">
        <ele>1944.4035644531</ele>
        <time>2015-03-12T10:41:48Z</time>
      </trkpt>
      <trkpt lat="42.81267" lon="-0.44501">
        <ele>1946.8068847656</ele>
        <time>2015-03-12T10:42:07Z</time>
      </trkpt>
      <trkpt lat="42.81267" lon="-0.44522">
        <ele>1949.2104492188</ele>
        <time>2015-03-12T10:42:29Z</time>
      </trkpt>
      <trkpt lat="42.81267" lon="-0.44523">
        <ele>1949.2104492188</ele>
        <time>2015-03-12T10:42:30Z</time>
      </trkpt>
      <trkpt lat="42.81266" lon="-0.4453">
        <ele>1950.171875</ele>
        <time>2015-03-12T10:42:37Z</time>
      </trkpt>
      <trkpt lat="42.81267" lon="-0.44539">
        <ele>1951.1330566406</ele>
        <time>2015-03-12T10:42:56Z</time>
      </trkpt>
      <trkpt lat="42.81263" lon="-0.44559">
        <ele>1953.5363769531</ele>
        <time>2015-03-12T10:43:16Z</time>
      </trkpt>
      <trkpt lat="42.81262" lon="-0.44571">
        <ele>1954.4975585938</ele>
        <time>2015-03-12T10:43:30Z</time>
      </trkpt>
      <trkpt lat="42.81256" lon="-0.44582">
        <ele>1957.8623046875</ele>
        <time>2015-03-12T10:43:42Z</time>
      </trkpt>
      <trkpt lat="42.81249" lon="-0.44602">
        <ele>1959.7846679688</ele>
        <time>2015-03-12T10:44:02Z</time>
      </trkpt>
      <trkpt lat="42.81246" lon="-0.44612">
        <ele>1961.2268066406</ele>
        <time>2015-03-12T10:44:16Z</time>
      </trkpt>
      <trkpt lat="42.81242" lon="-0.44624">
        <ele>1961.2268066406</ele>
        <time>2015-03-12T10:44:36Z</time>
      </trkpt>
      <trkpt lat="42.8124" lon="-0.44628">
        <ele>1962.1879882812</ele>
        <time>2015-03-12T10:44:58Z</time>
      </trkpt>
      <trkpt lat="42.81238" lon="-0.44635">
        <ele>1962.1879882812</ele>
        <time>2015-03-12T10:45:12Z</time>
      </trkpt>
      <trkpt lat="42.81235" lon="-0.44649">
        <ele>1963.6298828125</ele>
        <time>2015-03-12T10:45:27Z</time>
      </trkpt>
      <trkpt lat="42.81226" lon="-0.44674">
        <ele>1964.5915527344</ele>
        <time>2015-03-12T10:45:48Z</time>
      </trkpt>
      <trkpt lat="42.81221" lon="-0.44691">
        <ele>1965.5529785156</ele>
        <time>2015-03-12T10:46:04Z</time>
      </trkpt>
      <trkpt lat="42.81215" lon="-0.44713">
        <ele>1968.4367675781</ele>
        <time>2015-03-12T10:46:23Z</time>
      </trkpt>
      <trkpt lat="42.81209" lon="-0.44731">
        <ele>1969.3981933594</ele>
        <time>2015-03-12T10:46:41Z</time>
      </trkpt>
      <trkpt lat="42.81205" lon="-0.44748">
        <ele>1970.8400878906</ele>
        <time>2015-03-12T10:46:57Z</time>
      </trkpt>
      <trkpt lat="42.812" lon="-0.44763">
        <ele>1973.7238769531</ele>
        <time>2015-03-12T10:47:13Z</time>
      </trkpt>
      <trkpt lat="42.81193" lon="-0.44778">
        <ele>1975.1657714844</ele>
        <time>2015-03-12T10:47:29Z</time>
      </trkpt>
      <trkpt lat="42.81184" lon="-0.44798">
        <ele>1978.0498046875</ele>
        <time>2015-03-12T10:47:49Z</time>
      </trkpt>
      <trkpt lat="42.81184" lon="-0.44817">
        <ele>1980.9340820312</ele>
        <time>2015-03-12T10:48:07Z</time>
      </trkpt>
      <trkpt lat="42.8118" lon="-0.44835">
        <ele>1983.8178710938</ele>
        <time>2015-03-12T10:48:25Z</time>
      </trkpt>
      <trkpt lat="42.81175" lon="-0.44856">
        <ele>1985.259765625</ele>
        <time>2015-03-12T10:48:45Z</time>
      </trkpt>
      <trkpt lat="42.81169" lon="-0.44871">
        <ele>1988.1437988281</ele>
        <time>2015-03-12T10:49:02Z</time>
      </trkpt>
      <trkpt lat="42.81164" lon="-0.44886">
        <ele>1991.0275878906</ele>
        <time>2015-03-12T10:49:20Z</time>
      </trkpt>
      <trkpt lat="42.81161" lon="-0.449">
        <ele>1993.9116210938</ele>
        <time>2015-03-12T10:49:35Z</time>
      </trkpt>
      <trkpt lat="42.81158" lon="-0.44907">
        <ele>1994.8728027344</ele>
        <time>2015-03-12T10:49:52Z</time>
      </trkpt>
      <trkpt lat="42.81151" lon="-0.44921">
        <ele>1996.7956542969</ele>
        <time>2015-03-12T10:50:08Z</time>
      </trkpt>
      <trkpt lat="42.81145" lon="-0.44931">
        <ele>1997.7570800781</ele>
        <time>2015-03-12T10:50:19Z</time>
      </trkpt>
      <trkpt lat="42.81141" lon="-0.44934">
        <ele>1999.1989746094</ele>
        <time>2015-03-12T10:50:32Z</time>
      </trkpt>
      <trkpt lat="42.81137" lon="-0.44941">
        <ele>1999.6796875</ele>
        <time>2015-03-12T10:51:00Z</time>
      </trkpt>
      <trkpt lat="42.81127" lon="-0.44958">
        <ele>2000.1604003906</ele>
        <time>2015-03-12T10:51:17Z</time>
      </trkpt>
      <trkpt lat="42.81116" lon="-0.4498">
        <ele>2000.6408691406</ele>
        <time>2015-03-12T10:51:37Z</time>
      </trkpt>
      <trkpt lat="42.81106" lon="-0.44998">
        <ele>2003.5249023438</ele>
        <time>2015-03-12T10:51:56Z</time>
      </trkpt>
      <trkpt lat="42.81097" lon="-0.45015">
        <ele>2005.9279785156</ele>
        <time>2015-03-12T10:52:16Z</time>
      </trkpt>
      <trkpt lat="42.81088" lon="-0.45036">
        <ele>2008.3312988281</ele>
        <time>2015-03-12T10:52:39Z</time>
      </trkpt>
      <trkpt lat="42.81081" lon="-0.4505">
        <ele>2009.7731933594</ele>
        <time>2015-03-12T10:52:55Z</time>
      </trkpt>
      <trkpt lat="42.81077" lon="-0.45056">
        <ele>2012.6574707031</ele>
        <time>2015-03-12T10:53:14Z</time>
      </trkpt>
      <trkpt lat="42.81076" lon="-0.45061">
        <ele>2012.6574707031</ele>
        <time>2015-03-12T10:54:00Z</time>
      </trkpt>
      <trkpt lat="42.81068" lon="-0.45068">
        <ele>2016.0219726562</ele>
        <time>2015-03-12T10:54:13Z</time>
      </trkpt>
      <trkpt lat="42.81068" lon="-0.45069">
        <ele>2016.0219726562</ele>
        <time>2015-03-12T10:54:14Z</time>
      </trkpt>
      <trkpt lat="42.81059" lon="-0.4508">
        <ele>2018.9060058594</ele>
        <time>2015-03-12T10:54:33Z</time>
      </trkpt>
      <trkpt lat="42.8105" lon="-0.45088">
        <ele>2021.3090820312</ele>
        <time>2015-03-12T10:54:49Z</time>
      </trkpt>
      <trkpt lat="42.81038" lon="-0.45098">
        <ele>2022.2705078125</ele>
        <time>2015-03-12T10:55:09Z</time>
      </trkpt>
      <trkpt lat="42.81028" lon="-0.45107">
        <ele>2024.1931152344</ele>
        <time>2015-03-12T10:55:26Z</time>
      </trkpt>
      <trkpt lat="42.8102" lon="-0.45116">
        <ele>2026.5964355469</ele>
        <time>2015-03-12T10:55:43Z</time>
      </trkpt>
      <trkpt lat="42.8101" lon="-0.45124">
        <ele>2028.5192871094</ele>
        <time>2015-03-12T10:56:02Z</time>
      </trkpt>
      <trkpt lat="42.80996" lon="-0.45132">
        <ele>2030.9226074219</ele>
        <time>2015-03-12T10:56:24Z</time>
      </trkpt>
      <trkpt lat="42.80986" lon="-0.45138">
        <ele>2033.3256835938</ele>
        <time>2015-03-12T10:56:42Z</time>
      </trkpt>
      <trkpt lat="42.80981" lon="-0.45145">
        <ele>2036.6901855469</ele>
        <time>2015-03-12T10:56:58Z</time>
      </trkpt>
      <trkpt lat="42.80977" lon="-0.45155">
        <ele>2037.1708984375</ele>
        <time>2015-03-12T10:57:44Z</time>
      </trkpt>
      <trkpt lat="42.80968" lon="-0.45167">
        <ele>2039.57421875</ele>
        <time>2015-03-12T10:58:02Z</time>
      </trkpt>
      <trkpt lat="42.80962" lon="-0.45177">
        <ele>2042.4582519531</ele>
        <time>2015-03-12T10:58:16Z</time>
      </trkpt>
      <trkpt lat="42.80952" lon="-0.45189">
        <ele>2045.3422851562</ele>
        <time>2015-03-12T10:58:33Z</time>
      </trkpt>
      <trkpt lat="42.80946" lon="-0.45199">
        <ele>2046.7841796875</ele>
        <time>2015-03-12T10:58:47Z</time>
      </trkpt>
      <trkpt lat="42.80936" lon="-0.45213">
        <ele>2048.7067871094</ele>
        <time>2015-03-12T10:59:04Z</time>
      </trkpt>
      <trkpt lat="42.80933" lon="-0.45228">
        <ele>2050.6293945312</ele>
        <time>2015-03-12T10:59:17Z</time>
      </trkpt>
      <trkpt lat="42.80931" lon="-0.45255">
        <ele>2052.5520019531</ele>
        <time>2015-03-12T10:59:39Z</time>
      </trkpt>
      <trkpt lat="42.80926" lon="-0.45276">
        <ele>2055.9165039062</ele>
        <time>2015-03-12T10:59:57Z</time>
      </trkpt>
      <trkpt lat="42.80923" lon="-0.4529">
        <ele>2058.8005371094</ele>
        <time>2015-03-12T11:00:12Z</time>
      </trkpt>
      <trkpt lat="42.8092" lon="-0.45307">
        <ele>2061.2041015625</ele>
        <time>2015-03-12T11:00:29Z</time>
      </trkpt>
      <trkpt lat="42.80914" lon="-0.45321">
        <ele>2064.087890625</ele>
        <time>2015-03-12T11:00:44Z</time>
      </trkpt>
      <trkpt lat="42.80913" lon="-0.45333">
        <ele>2067.9331054688</ele>
        <time>2015-03-12T11:00:59Z</time>
      </trkpt>
      <trkpt lat="42.80913" lon="-0.45345">
        <ele>2071.2976074219</ele>
        <time>2015-03-12T11:01:15Z</time>
      </trkpt>
      <trkpt lat="42.80912" lon="-0.45356">
        <ele>2074.181640625</ele>
        <time>2015-03-12T11:01:29Z</time>
      </trkpt>
      <trkpt lat="42.80911" lon="-0.45364">
        <ele>2076.1044921875</ele>
        <time>2015-03-12T11:01:44Z</time>
      </trkpt>
      <trkpt lat="42.80908" lon="-0.45368">
        <ele>2077.0659179688</ele>
        <time>2015-03-12T11:01:59Z</time>
      </trkpt>
      <trkpt lat="42.80909" lon="-0.45373">
        <ele>2078.98828125</ele>
        <time>2015-03-12T11:02:30Z</time>
      </trkpt>
      <trkpt lat="42.80912" lon="-0.45393">
        <ele>2080.4304199219</ele>
        <time>2015-03-12T11:02:48Z</time>
      </trkpt>
      <trkpt lat="42.80912" lon="-0.45398">
        <ele>2080.4304199219</ele>
        <time>2015-03-12T11:02:52Z</time>
      </trkpt>
      <trkpt lat="42.80912" lon="-0.45419">
        <ele>2080.9111328125</ele>
        <time>2015-03-12T11:03:10Z</time>
      </trkpt>
      <trkpt lat="42.80912" lon="-0.45425">
        <ele>2081.8723144531</ele>
        <time>2015-03-12T11:03:32Z</time>
      </trkpt>
      <trkpt lat="42.80917" lon="-0.45441">
        <ele>2082.8334960938</ele>
        <time>2015-03-12T11:03:48Z</time>
      </trkpt>
      <trkpt lat="42.80918" lon="-0.45461">
        <ele>2084.2756347656</ele>
        <time>2015-03-12T11:04:05Z</time>
      </trkpt>
      <trkpt lat="42.80919" lon="-0.45479">
        <ele>2083.3142089844</ele>
        <time>2015-03-12T11:04:24Z</time>
      </trkpt>
      <trkpt lat="42.80921" lon="-0.45491">
        <ele>2081.8723144531</ele>
        <time>2015-03-12T11:04:39Z</time>
      </trkpt>
      <trkpt lat="42.80922" lon="-0.45511">
        <ele>2083.3142089844</ele>
        <time>2015-03-12T11:04:57Z</time>
      </trkpt>
      <trkpt lat="42.80924" lon="-0.45534">
        <ele>2084.2756347656</ele>
        <time>2015-03-12T11:05:15Z</time>
      </trkpt>
      <trkpt lat="42.80924" lon="-0.45554">
        <ele>2087.1594238281</ele>
        <time>2015-03-12T11:05:32Z</time>
      </trkpt>
      <trkpt lat="42.80925" lon="-0.45576">
        <ele>2089.08203125</ele>
        <time>2015-03-12T11:05:52Z</time>
      </trkpt>
      <trkpt lat="42.80926" lon="-0.45594">
        <ele>2089.08203125</ele>
        <time>2015-03-12T11:06:07Z</time>
      </trkpt>
      <trkpt lat="42.80929" lon="-0.45616">
        <ele>2090.0434570312</ele>
        <time>2015-03-12T11:06:26Z</time>
      </trkpt>
      <trkpt lat="42.80929" lon="-0.45629">
        <ele>2090.5239257812</ele>
        <time>2015-03-12T11:06:43Z</time>
      </trkpt>
      <trkpt lat="42.80931" lon="-0.45648">
        <ele>2093.408203125</ele>
        <time>2015-03-12T11:07:01Z</time>
      </trkpt>
      <trkpt lat="42.80934" lon="-0.45669">
        <ele>2095.3308105469</ele>
        <time>2015-03-12T11:07:20Z</time>
      </trkpt>
      <trkpt lat="42.80933" lon="-0.45672">
        <ele>2095.3308105469</ele>
        <time>2015-03-12T11:07:38Z</time>
      </trkpt>
      <trkpt lat="42.80933" lon="-0.45689">
        <ele>2097.7341308594</ele>
        <time>2015-03-12T11:07:56Z</time>
      </trkpt>
      <trkpt lat="42.80934" lon="-0.45708">
        <ele>2098.2145996094</ele>
        <time>2015-03-12T11:08:14Z</time>
      </trkpt>
      <trkpt lat="42.80935" lon="-0.45724">
        <ele>2098.2145996094</ele>
        <time>2015-03-12T11:08:30Z</time>
      </trkpt>
      <trkpt lat="42.80935" lon="-0.45744">
        <ele>2101.0986328125</ele>
        <time>2015-03-12T11:08:49Z</time>
      </trkpt>
      <trkpt lat="42.80941" lon="-0.45755">
        <ele>2103.9826660156</ele>
        <time>2015-03-12T11:09:05Z</time>
      </trkpt>
      <trkpt lat="42.80944" lon="-0.45759">
        <ele>2104.9438476562</ele>
        <time>2015-03-12T11:09:11Z</time>
      </trkpt>
      <trkpt lat="42.80949" lon="-0.45763">
        <ele>2106.3857421875</ele>
        <time>2015-03-12T11:09:24Z</time>
      </trkpt>
      <trkpt lat="42.8095" lon="-0.45763">
        <ele>2106.3857421875</ele>
        <time>2015-03-12T11:09:46Z</time>
      </trkpt>
      <trkpt lat="42.8095" lon="-0.45763">
        <ele>2105.9050292969</ele>
        <time>2015-03-12T11:10:02Z</time>
      </trkpt>
      <trkpt lat="42.8095" lon="-0.45762">
        <ele>2106.3857421875</ele>
        <time>2015-03-12T11:11:24Z</time>
      </trkpt>
      <trkpt lat="42.80948" lon="-0.45763">
        <ele>2107.8278808594</ele>
        <time>2015-03-12T11:11:48Z</time>
      </trkpt>
      <trkpt lat="42.80946" lon="-0.45762">
        <ele>2106.8664550781</ele>
        <time>2015-03-12T11:12:08Z</time>
      </trkpt>
      <trkpt lat="42.8095" lon="-0.45764">
        <ele>2106.3857421875</ele>
        <time>2015-03-12T11:12:43Z</time>
      </trkpt>
      <trkpt lat="42.80943" lon="-0.45776">
        <ele>2108.7893066406</ele>
        <time>2015-03-12T11:13:06Z</time>
      </trkpt>
      <trkpt lat="42.80936" lon="-0.45792">
        <ele>2109.2700195312</ele>
        <time>2015-03-12T11:13:22Z</time>
      </trkpt>
      <trkpt lat="42.80924" lon="-0.45816">
        <ele>2109.2700195312</ele>
        <time>2015-03-12T11:13:41Z</time>
      </trkpt>
      <trkpt lat="42.80917" lon="-0.45837">
        <ele>2111.1926269531</ele>
        <time>2015-03-12T11:13:57Z</time>
      </trkpt>
      <trkpt lat="42.80906" lon="-0.4586">
        <ele>2112.6345214844</ele>
        <time>2015-03-12T11:14:17Z</time>
      </trkpt>
      <trkpt lat="42.80896" lon="-0.45883">
        <ele>2114.5571289062</ele>
        <time>2015-03-12T11:14:36Z</time>
      </trkpt>
      <trkpt lat="42.8089" lon="-0.45908">
        <ele>2115.9990234375</ele>
        <time>2015-03-12T11:14:55Z</time>
      </trkpt>
      <trkpt lat="42.80885" lon="-0.45923">
        <ele>2117.4409179688</ele>
        <time>2015-03-12T11:15:07Z</time>
      </trkpt>
      <trkpt lat="42.80879" lon="-0.45944">
        <ele>2119.3637695312</ele>
        <time>2015-03-12T11:15:26Z</time>
      </trkpt>
      <trkpt lat="42.8088" lon="-0.45946">
        <ele>2119.3637695312</ele>
        <time>2015-03-12T11:15:48Z</time>
      </trkpt>
      <trkpt lat="42.80879" lon="-0.45948">
        <ele>2121.2861328125</ele>
        <time>2015-03-12T11:15:51Z</time>
      </trkpt>
      <trkpt lat="42.80871" lon="-0.45961">
        <ele>2123.689453125</ele>
        <time>2015-03-12T11:16:07Z</time>
      </trkpt>
      <trkpt lat="42.8087" lon="-0.45979">
        <ele>2126.0930175781</ele>
        <time>2015-03-12T11:16:25Z</time>
      </trkpt>
      <trkpt lat="42.80869" lon="-0.45996">
        <ele>2129.4575195312</ele>
        <time>2015-03-12T11:16:44Z</time>
      </trkpt>
      <trkpt lat="42.8087" lon="-0.46014">
        <ele>2132.3415527344</ele>
        <time>2015-03-12T11:17:02Z</time>
      </trkpt>
      <trkpt lat="42.80868" lon="-0.4603">
        <ele>2135.7060546875</ele>
        <time>2015-03-12T11:17:21Z</time>
      </trkpt>
      <trkpt lat="42.80866" lon="-0.46038">
        <ele>2138.109375</ele>
        <time>2015-03-12T11:17:32Z</time>
      </trkpt>
      <trkpt lat="42.80863" lon="-0.46053">
        <ele>2141.4741210938</ele>
        <time>2015-03-12T11:17:51Z</time>
      </trkpt>
      <trkpt lat="42.8086" lon="-0.46068">
        <ele>2143.3967285156</ele>
        <time>2015-03-12T11:18:09Z</time>
      </trkpt>
      <trkpt lat="42.80856" lon="-0.46081">
        <ele>2146.7612304688</ele>
        <time>2015-03-12T11:18:25Z</time>
      </trkpt>
      <trkpt lat="42.80852" lon="-0.46099">
        <ele>2149.6452636719</ele>
        <time>2015-03-12T11:18:47Z</time>
      </trkpt>
      <trkpt lat="42.8085" lon="-0.46112">
        <ele>2153.009765625</ele>
        <time>2015-03-12T11:19:02Z</time>
      </trkpt>
      <trkpt lat="42.80844" lon="-0.46123">
        <ele>2155.8935546875</ele>
        <time>2015-03-12T11:19:19Z</time>
      </trkpt>
      <trkpt lat="42.80842" lon="-0.46125">
        <ele>2156.8552246094</ele>
        <time>2015-03-12T11:19:23Z</time>
      </trkpt>
      <trkpt lat="42.80836" lon="-0.46125">
        <ele>2159.2585449219</ele>
        <time>2015-03-12T11:19:32Z</time>
      </trkpt>
      <trkpt lat="42.80831" lon="-0.46129">
        <ele>2162.1423339844</ele>
        <time>2015-03-12T11:19:45Z</time>
      </trkpt>
      <trkpt lat="42.80828" lon="-0.4613">
        <ele>2163.5842285156</ele>
        <time>2015-03-12T11:19:50Z</time>
      </trkpt>
      <trkpt lat="42.80825" lon="-0.46133">
        <ele>2165.5070800781</ele>
        <time>2015-03-12T11:19:58Z</time>
      </trkpt>
      <trkpt lat="42.80822" lon="-0.46136">
        <ele>2166.4682617188</ele>
        <time>2015-03-12T11:20:03Z</time>
      </trkpt>
      <trkpt lat="42.80815" lon="-0.46142">
        <ele>2167.91015625</ele>
        <time>2015-03-12T11:20:24Z</time>
      </trkpt>
      <trkpt lat="42.80808" lon="-0.46148">
        <ele>2170.7941894531</ele>
        <time>2015-03-12T11:20:39Z</time>
      </trkpt>
      <trkpt lat="42.80803" lon="-0.46154">
        <ele>2174.1589355469</ele>
        <time>2015-03-12T11:20:52Z</time>
      </trkpt>
      <trkpt lat="42.80797" lon="-0.4616">
        <ele>2177.5234375</ele>
        <time>2015-03-12T11:21:08Z</time>
      </trkpt>
      <trkpt lat="42.80794" lon="-0.46163">
        <ele>2178.4848632812</ele>
        <time>2015-03-12T11:21:27Z</time>
      </trkpt>
      <trkpt lat="42.80787" lon="-0.46172">
        <ele>2180.4074707031</ele>
        <time>2015-03-12T11:21:42Z</time>
      </trkpt>
      <trkpt lat="42.80783" lon="-0.46181">
        <ele>2183.7719726562</ele>
        <time>2015-03-12T11:21:59Z</time>
      </trkpt>
      <trkpt lat="42.80777" lon="-0.46192">
        <ele>2186.6557617188</ele>
        <time>2015-03-12T11:22:16Z</time>
      </trkpt>
      <trkpt lat="42.80775" lon="-0.46201">
        <ele>2189.0593261719</ele>
        <time>2015-03-12T11:22:35Z</time>
      </trkpt>
      <trkpt lat="42.80773" lon="-0.46212">
        <ele>2192.4240722656</ele>
        <time>2015-03-12T11:22:50Z</time>
      </trkpt>
      <trkpt lat="42.80768" lon="-0.46221">
        <ele>2194.3464355469</ele>
        <time>2015-03-12T11:23:07Z</time>
      </trkpt>
      <trkpt lat="42.80764" lon="-0.46229">
        <ele>2198.1916503906</ele>
        <time>2015-03-12T11:23:19Z</time>
      </trkpt>
      <trkpt lat="42.80763" lon="-0.46239">
        <ele>2200.1145019531</ele>
        <time>2015-03-12T11:23:40Z</time>
      </trkpt>
      <trkpt lat="42.80765" lon="-0.46256">
        <ele>2201.5563964844</ele>
        <time>2015-03-12T11:23:59Z</time>
      </trkpt>
      <trkpt lat="42.80767" lon="-0.46266">
        <ele>2203.9597167969</ele>
        <time>2015-03-12T11:24:21Z</time>
      </trkpt>
      <trkpt lat="42.80766" lon="-0.46286">
        <ele>2206.3630371094</ele>
        <time>2015-03-12T11:24:41Z</time>
      </trkpt>
      <trkpt lat="42.80765" lon="-0.46296">
        <ele>2207.3244628906</ele>
        <time>2015-03-12T11:24:49Z</time>
      </trkpt>
      <trkpt lat="42.80768" lon="-0.46319">
        <ele>2207.3244628906</ele>
        <time>2015-03-12T11:25:07Z</time>
      </trkpt>
      <trkpt lat="42.80773" lon="-0.46336">
        <ele>2209.7275390625</ele>
        <time>2015-03-12T11:25:25Z</time>
      </trkpt>
      <trkpt lat="42.80778" lon="-0.46344">
        <ele>2210.6889648438</ele>
        <time>2015-03-12T11:25:34Z</time>
      </trkpt>
      <trkpt lat="42.80795" lon="-0.46359">
        <ele>2211.650390625</ele>
        <time>2015-03-12T11:25:56Z</time>
      </trkpt>
      <trkpt lat="42.80815" lon="-0.46366">
        <ele>2215.0148925781</ele>
        <time>2015-03-12T11:26:17Z</time>
      </trkpt>
      <trkpt lat="42.8083" lon="-0.46373">
        <ele>2217.8986816406</ele>
        <time>2015-03-12T11:26:37Z</time>
      </trkpt>
      <trkpt lat="42.80842" lon="-0.46381">
        <ele>2218.3793945312</ele>
        <time>2015-03-12T11:26:51Z</time>
      </trkpt>
      <trkpt lat="42.8085" lon="-0.46388">
        <ele>2219.8212890625</ele>
        <time>2015-03-12T11:27:02Z</time>
      </trkpt>
      <trkpt lat="42.80865" lon="-0.46396">
        <ele>2222.2248535156</ele>
        <time>2015-03-12T11:27:20Z</time>
      </trkpt>
      <trkpt lat="42.8088" lon="-0.46406">
        <ele>2224.1474609375</ele>
        <time>2015-03-12T11:27:38Z</time>
      </trkpt>
      <trkpt lat="42.80888" lon="-0.46406">
        <ele>2224.1474609375</ele>
        <time>2015-03-12T11:27:47Z</time>
      </trkpt>
      <trkpt lat="42.80905" lon="-0.46398">
        <ele>2227.0314941406</ele>
        <time>2015-03-12T11:28:08Z</time>
      </trkpt>
      <trkpt lat="42.80919" lon="-0.46393">
        <ele>2230.3959960938</ele>
        <time>2015-03-12T11:28:26Z</time>
      </trkpt>
      <trkpt lat="42.80935" lon="-0.46387">
        <ele>2232.3186035156</ele>
        <time>2015-03-12T11:28:44Z</time>
      </trkpt>
      <trkpt lat="42.80951" lon="-0.46383">
        <ele>2235.6831054688</ele>
        <time>2015-03-12T11:29:06Z</time>
      </trkpt>
      <trkpt lat="42.80959" lon="-0.46388">
        <ele>2236.64453125</ele>
        <time>2015-03-12T11:29:24Z</time>
      </trkpt>
      <trkpt lat="42.80965" lon="-0.46395">
        <ele>2240.0092773438</ele>
        <time>2015-03-12T11:29:39Z</time>
      </trkpt>
      <trkpt lat="42.80973" lon="-0.46402">
        <ele>2242.4125976562</ele>
        <time>2015-03-12T11:29:57Z</time>
      </trkpt>
      <trkpt lat="42.80979" lon="-0.46408">
        <ele>2244.3349609375</ele>
        <time>2015-03-12T11:30:15Z</time>
      </trkpt>
      <trkpt lat="42.80989" lon="-0.46419">
        <ele>2245.7770996094</ele>
        <time>2015-03-12T11:30:34Z</time>
      </trkpt>
      <trkpt lat="42.80992" lon="-0.46432">
        <ele>2248.6608886719</ele>
        <time>2015-03-12T11:30:50Z</time>
      </trkpt>
      <trkpt lat="42.80985" lon="-0.46449">
        <ele>2251.544921875</ele>
        <time>2015-03-12T11:31:10Z</time>
      </trkpt>
      <trkpt lat="42.80983" lon="-0.46465">
        <ele>2255.3903808594</ele>
        <time>2015-03-12T11:31:27Z</time>
      </trkpt>
      <trkpt lat="42.80981" lon="-0.46472">
        <ele>2255.8708496094</ele>
        <time>2015-03-12T11:31:36Z</time>
      </trkpt>
      <trkpt lat="42.80967" lon="-0.46488">
        <ele>2256.8322753906</ele>
        <time>2015-03-12T11:31:56Z</time>
      </trkpt>
      <trkpt lat="42.80951" lon="-0.46504">
        <ele>2257.7937011719</ele>
        <time>2015-03-12T11:32:15Z</time>
      </trkpt>
      <trkpt lat="42.80937" lon="-0.46522">
        <ele>2258.2741699219</ele>
        <time>2015-03-12T11:32:35Z</time>
      </trkpt>
      <trkpt lat="42.80925" lon="-0.46536">
        <ele>2261.158203125</ele>
        <time>2015-03-12T11:32:53Z</time>
      </trkpt>
      <trkpt lat="42.80916" lon="-0.46551">
        <ele>2263.5612792969</ele>
        <time>2015-03-12T11:33:12Z</time>
      </trkpt>
      <trkpt lat="42.80907" lon="-0.46562">
        <ele>2266.9260253906</ele>
        <time>2015-03-12T11:33:29Z</time>
      </trkpt>
      <trkpt lat="42.80903" lon="-0.46566">
        <ele>2268.3681640625</ele>
        <time>2015-03-12T11:33:45Z</time>
      </trkpt>
      <trkpt lat="42.80894" lon="-0.46572">
        <ele>2270.2907714844</ele>
        <time>2015-03-12T11:34:01Z</time>
      </trkpt>
      <trkpt lat="42.80884" lon="-0.46579">
        <ele>2273.6552734375</ele>
        <time>2015-03-12T11:34:15Z</time>
      </trkpt>
      <trkpt lat="42.80882" lon="-0.46582">
        <ele>2274.1359863281</ele>
        <time>2015-03-12T11:34:30Z</time>
      </trkpt>
      <trkpt lat="42.80874" lon="-0.46589">
        <ele>2277.5004882812</ele>
        <time>2015-03-12T11:34:45Z</time>
      </trkpt>
      <trkpt lat="42.80865" lon="-0.46596">
        <ele>2279.9038085938</ele>
        <time>2015-03-12T11:35:05Z</time>
      </trkpt>
      <trkpt lat="42.80858" lon="-0.46601">
        <ele>2282.3071289062</ele>
        <time>2015-03-12T11:35:23Z</time>
      </trkpt>
      <trkpt lat="42.80852" lon="-0.46613">
        <ele>2284.7106933594</ele>
        <time>2015-03-12T11:35:42Z</time>
      </trkpt>
      <trkpt lat="42.80846" lon="-0.46627">
        <ele>2286.6330566406</ele>
        <time>2015-03-12T11:36:01Z</time>
      </trkpt>
      <trkpt lat="42.80844" lon="-0.46635">
        <ele>2289.9978027344</ele>
        <time>2015-03-12T11:36:10Z</time>
      </trkpt>
      <trkpt lat="42.80841" lon="-0.46638">
        <ele>2291.4396972656</ele>
        <time>2015-03-12T11:36:29Z</time>
      </trkpt>
      <trkpt lat="42.80835" lon="-0.46644">
        <ele>2294.3234863281</ele>
        <time>2015-03-12T11:36:46Z</time>
      </trkpt>
      <trkpt lat="42.80828" lon="-0.46652">
        <ele>2297.2075195312</ele>
        <time>2015-03-12T11:37:01Z</time>
      </trkpt>
      <trkpt lat="42.80819" lon="-0.46659">
        <ele>2298.1687011719</ele>
        <time>2015-03-12T11:37:19Z</time>
      </trkpt>
      <trkpt lat="42.80815" lon="-0.46662">
        <ele>2301.5336914062</ele>
        <time>2015-03-12T11:37:35Z</time>
      </trkpt>
      <trkpt lat="42.80804" lon="-0.46668">
        <ele>2302.4948730469</ele>
        <time>2015-03-12T11:37:54Z</time>
      </trkpt>
      <trkpt lat="42.80795" lon="-0.46671">
        <ele>2305.859375</ele>
        <time>2015-03-12T11:38:08Z</time>
      </trkpt>
      <trkpt lat="42.80788" lon="-0.46673">
        <ele>2308.7434082031</ele>
        <time>2015-03-12T11:38:25Z</time>
      </trkpt>
      <trkpt lat="42.80774" lon="-0.46674">
        <ele>2311.6274414062</ele>
        <time>2015-03-12T11:38:46Z</time>
      </trkpt>
      <trkpt lat="42.80769" lon="-0.46672">
        <ele>2312.1079101562</ele>
        <time>2015-03-12T11:39:03Z</time>
      </trkpt>
      <trkpt lat="42.8076" lon="-0.46671">
        <ele>2314.0305175781</ele>
        <time>2015-03-12T11:39:22Z</time>
      </trkpt>
      <trkpt lat="42.80759" lon="-0.46671">
        <ele>2315.953125</ele>
        <time>2015-03-12T11:39:25Z</time>
      </trkpt>
      <trkpt lat="42.80751" lon="-0.4667">
        <ele>2318.8374023438</ele>
        <time>2015-03-12T11:39:38Z</time>
      </trkpt>
      <trkpt lat="42.80745" lon="-0.4667">
        <ele>2318.8374023438</ele>
        <time>2015-03-12T11:39:52Z</time>
      </trkpt>
      <trkpt lat="42.80735" lon="-0.46663">
        <ele>2321.7211914062</ele>
        <time>2015-03-12T11:40:08Z</time>
      </trkpt>
      <trkpt lat="42.80734" lon="-0.46656">
        <ele>2323.6437988281</ele>
        <time>2015-03-12T11:40:16Z</time>
      </trkpt>
      <trkpt lat="42.8073" lon="-0.46647">
        <ele>2325.0856933594</ele>
        <time>2015-03-12T11:40:35Z</time>
      </trkpt>
      <trkpt lat="42.80725" lon="-0.46637">
        <ele>2327.9697265625</ele>
        <time>2015-03-12T11:40:53Z</time>
      </trkpt>
      <trkpt lat="42.8072" lon="-0.46628">
        <ele>2331.3342285156</ele>
        <time>2015-03-12T11:41:23Z</time>
      </trkpt>
      <trkpt lat="42.8072" lon="-0.46627">
        <ele>2331.3342285156</ele>
        <time>2015-03-12T11:41:24Z</time>
      </trkpt>
      <trkpt lat="42.80717" lon="-0.4662">
        <ele>2334.2185058594</ele>
        <time>2015-03-12T11:41:33Z</time>
      </trkpt>
      <trkpt lat="42.80714" lon="-0.46611">
        <ele>2334.69921875</ele>
        <time>2015-03-12T11:41:54Z</time>
      </trkpt>
      <trkpt lat="42.80706" lon="-0.46607">
        <ele>2336.1411132812</ele>
        <time>2015-03-12T11:42:18Z</time>
      </trkpt>
      <trkpt lat="42.80703" lon="-0.46609">
        <ele>2338.5444335938</ele>
        <time>2015-03-12T11:42:24Z</time>
      </trkpt>
      <trkpt lat="42.80695" lon="-0.4661">
        <ele>2341.9089355469</ele>
        <time>2015-03-12T11:42:39Z</time>
      </trkpt>
      <trkpt lat="42.8069" lon="-0.46614">
        <ele>2341.9089355469</ele>
        <time>2015-03-12T11:42:55Z</time>
      </trkpt>
      <trkpt lat="42.80685" lon="-0.46617">
        <ele>2344.7927246094</ele>
        <time>2015-03-12T11:43:16Z</time>
      </trkpt>
      <trkpt lat="42.80685" lon="-0.46617">
        <ele>2345.2734375</ele>
        <time>2015-03-12T11:43:17Z</time>
      </trkpt>
      <trkpt lat="42.80673" lon="-0.46617">
        <ele>2349.1188964844</ele>
        <time>2015-03-12T11:43:34Z</time>
      </trkpt>
      <trkpt lat="42.80665" lon="-0.46613">
        <ele>2350.0803222656</ele>
        <time>2015-03-12T11:43:45Z</time>
      </trkpt>
      <trkpt lat="42.80653" lon="-0.466">
        <ele>2352.4833984375</ele>
        <time>2015-03-12T11:44:02Z</time>
      </trkpt>
      <trkpt lat="42.80653" lon="-0.46599">
        <ele>2352.9641113281</ele>
        <time>2015-03-12T11:44:24Z</time>
      </trkpt>
      <trkpt lat="42.80655" lon="-0.466">
        <ele>2351.0415039062</ele>
        <time>2015-03-12T11:44:46Z</time>
      </trkpt>
      <trkpt lat="42.80655" lon="-0.466">
        <ele>2351.5222167969</ele>
        <time>2015-03-12T11:45:21Z</time>
      </trkpt>
      <trkpt lat="42.80659" lon="-0.46606">
        <ele>2352.9641113281</ele>
        <time>2015-03-12T11:45:45Z</time>
      </trkpt>
      <trkpt lat="42.80661" lon="-0.4661">
        <ele>2352.4833984375</ele>
        <time>2015-03-12T11:46:03Z</time>
      </trkpt>
      <trkpt lat="42.8066" lon="-0.46611">
        <ele>2352.4833984375</ele>
        <time>2015-03-12T11:46:23Z</time>
      </trkpt>
      <trkpt lat="42.8066" lon="-0.46612">
        <ele>2352.9641113281</ele>
        <time>2015-03-12T11:46:56Z</time>
      </trkpt>
      <trkpt lat="42.8066" lon="-0.4661">
        <ele>2353.4448242188</ele>
        <time>2015-03-12T11:47:34Z</time>
      </trkpt>
      <trkpt lat="42.80661" lon="-0.46609">
        <ele>2352.4833984375</ele>
        <time>2015-03-12T11:48:32Z</time>
      </trkpt>
      <trkpt lat="42.80662" lon="-0.46609">
        <ele>2353.4448242188</ele>
        <time>2015-03-12T11:48:59Z</time>
      </trkpt>
      <trkpt lat="42.80662" lon="-0.46609">
        <ele>2352.4833984375</ele>
        <time>2015-03-12T11:49:35Z</time>
      </trkpt>
      <trkpt lat="42.80662" lon="-0.46609">
        <ele>2352.9641113281</ele>
        <time>2015-03-12T11:50:02Z</time>
      </trkpt>
      <trkpt lat="42.80662" lon="-0.46612">
        <ele>2352.9641113281</ele>
        <time>2015-03-12T11:50:23Z</time>
      </trkpt>
      <trkpt lat="42.80663" lon="-0.46611">
        <ele>2352.0026855469</ele>
        <time>2015-03-12T11:51:22Z</time>
      </trkpt>
      <trkpt lat="42.80662" lon="-0.46611">
        <ele>2352.4833984375</ele>
        <time>2015-03-12T11:51:57Z</time>
      </trkpt>
      <trkpt lat="42.80659" lon="-0.46603">
        <ele>2352.4833984375</ele>
        <time>2015-03-12T11:52:12Z</time>
      </trkpt>
      <trkpt lat="42.80659" lon="-0.46603">
        <ele>2353.9255371094</ele>
        <time>2015-03-12T11:53:22Z</time>
      </trkpt>
      <trkpt lat="42.80659" lon="-0.46602">
        <ele>2354.4060058594</ele>
        <time>2015-03-12T11:53:57Z</time>
      </trkpt>
      <trkpt lat="42.80662" lon="-0.46606">
        <ele>2353.9255371094</ele>
        <time>2015-03-12T11:54:05Z</time>
      </trkpt>
      <trkpt lat="42.80676" lon="-0.46615">
        <ele>2350.5607910156</ele>
        <time>2015-03-12T11:54:23Z</time>
      </trkpt>
      <trkpt lat="42.80683" lon="-0.46616">
        <ele>2347.1960449219</ele>
        <time>2015-03-12T11:54:31Z</time>
      </trkpt>
      <trkpt lat="42.80693" lon="-0.46616">
        <ele>2343.8315429688</ele>
        <time>2015-03-12T11:54:44Z</time>
      </trkpt>
      <trkpt lat="42.80695" lon="-0.46616">
        <ele>2342.8701171875</ele>
        <time>2015-03-12T11:54:46Z</time>
      </trkpt>
      <trkpt lat="42.807" lon="-0.46615">
        <ele>2341.4282226562</ele>
        <time>2015-03-12T11:54:52Z</time>
      </trkpt>
      <trkpt lat="42.80707" lon="-0.46615">
        <ele>2338.5444335938</ele>
        <time>2015-03-12T11:55:03Z</time>
      </trkpt>
      <trkpt lat="42.80717" lon="-0.46613">
        <ele>2335.1796875</ele>
        <time>2015-03-12T11:55:17Z</time>
      </trkpt>
      <trkpt lat="42.80725" lon="-0.46613">
        <ele>2331.8149414062</ele>
        <time>2015-03-12T11:55:27Z</time>
      </trkpt>
      <trkpt lat="42.80728" lon="-0.46612">
        <ele>2330.373046875</ele>
        <time>2015-03-12T11:55:32Z</time>
      </trkpt>
      <trkpt lat="42.80743" lon="-0.46612">
        <ele>2327.0085449219</ele>
        <time>2015-03-12T11:55:48Z</time>
      </trkpt>
      <trkpt lat="42.80748" lon="-0.46612">
        <ele>2324.1245117188</ele>
        <time>2015-03-12T11:55:54Z</time>
      </trkpt>
      <trkpt lat="42.80757" lon="-0.46612">
        <ele>2321.7211914062</ele>
        <time>2015-03-12T11:56:23Z</time>
      </trkpt>
      <trkpt lat="42.80766" lon="-0.46609">
        <ele>2319.7985839844</ele>
        <time>2015-03-12T11:56:34Z</time>
      </trkpt>
      <trkpt lat="42.80774" lon="-0.46607">
        <ele>2317.3952636719</ele>
        <time>2015-03-12T11:56:43Z</time>
      </trkpt>
      <trkpt lat="42.80782" lon="-0.46602">
        <ele>2315.953125</ele>
        <time>2015-03-12T11:56:53Z</time>
      </trkpt>
      <trkpt lat="42.80787" lon="-0.46602">
        <ele>2314.0305175781</ele>
        <time>2015-03-12T11:56:58Z</time>
      </trkpt>
      <trkpt lat="42.80794" lon="-0.466">
        <ele>2310.666015625</ele>
        <time>2015-03-12T11:57:06Z</time>
      </trkpt>
      <trkpt lat="42.80802" lon="-0.46596">
        <ele>2307.3015136719</ele>
        <time>2015-03-12T11:57:17Z</time>
      </trkpt>
      <trkpt lat="42.80816" lon="-0.46592">
        <ele>2304.4174804688</ele>
        <time>2015-03-12T11:57:32Z</time>
      </trkpt>
      <trkpt lat="42.80817" lon="-0.46591">
        <ele>2303.4562988281</ele>
        <time>2015-03-12T11:57:34Z</time>
      </trkpt>
      <trkpt lat="42.80828" lon="-0.46585">
        <ele>2300.091796875</ele>
        <time>2015-03-12T11:57:50Z</time>
      </trkpt>
      <trkpt lat="42.80829" lon="-0.46585">
        <ele>2300.091796875</ele>
        <time>2015-03-12T11:57:51Z</time>
      </trkpt>
      <trkpt lat="42.80831" lon="-0.46583">
        <ele>2298.6494140625</ele>
        <time>2015-03-12T11:57:54Z</time>
      </trkpt>
      <trkpt lat="42.80835" lon="-0.46577">
        <ele>2295.2849121094</ele>
        <time>2015-03-12T11:58:03Z</time>
      </trkpt>
      <trkpt lat="42.8084" lon="-0.46569">
        <ele>2291.9204101562</ele>
        <time>2015-03-12T11:58:13Z</time>
      </trkpt>
      <trkpt lat="42.80844" lon="-0.46566">
        <ele>2289.9978027344</ele>
        <time>2015-03-12T11:58:18Z</time>
      </trkpt>
      <trkpt lat="42.8085" lon="-0.46561">
        <ele>2287.5944824219</ele>
        <time>2015-03-12T11:58:34Z</time>
      </trkpt>
      <trkpt lat="42.8086" lon="-0.46555">
        <ele>2283.2683105469</ele>
        <time>2015-03-12T11:58:45Z</time>
      </trkpt>
      <trkpt lat="42.80867" lon="-0.46553">
        <ele>2280.865234375</ele>
        <time>2015-03-12T11:58:53Z</time>
      </trkpt>
      <trkpt lat="42.80882" lon="-0.4655">
        <ele>2277.5004882812</ele>
        <time>2015-03-12T11:59:10Z</time>
      </trkpt>
      <trkpt lat="42.80886" lon="-0.46547">
        <ele>2276.05859375</ele>
        <time>2015-03-12T11:59:14Z</time>
      </trkpt>
      <trkpt lat="42.80892" lon="-0.46542">
        <ele>2272.6940917969</ele>
        <time>2015-03-12T11:59:22Z</time>
      </trkpt>
      <trkpt lat="42.809" lon="-0.46533">
        <ele>2269.8100585938</ele>
        <time>2015-03-12T11:59:34Z</time>
      </trkpt>
      <trkpt lat="42.80906" lon="-0.46523">
        <ele>2265.9645996094</ele>
        <time>2015-03-12T11:59:46Z</time>
      </trkpt>
      <trkpt lat="42.80906" lon="-0.46522">
        <ele>2266.4453125</ele>
        <time>2015-03-12T11:59:47Z</time>
      </trkpt>
      <trkpt lat="42.80907" lon="-0.46519">
        <ele>2264.5227050781</ele>
        <time>2015-03-12T11:59:50Z</time>
      </trkpt>
      <trkpt lat="42.80909" lon="-0.46508">
        <ele>2261.158203125</ele>
        <time>2015-03-12T12:00:04Z</time>
      </trkpt>
      <trkpt lat="42.80911" lon="-0.46505">
        <ele>2259.7160644531</ele>
        <time>2015-03-12T12:00:07Z</time>
      </trkpt>
      <trkpt lat="42.80919" lon="-0.46485">
        <ele>2256.8322753906</ele>
        <time>2015-03-12T12:00:24Z</time>
      </trkpt>
      <trkpt lat="42.80928" lon="-0.46468">
        <ele>2254.4289550781</ele>
        <time>2015-03-12T12:00:42Z</time>
      </trkpt>
      <trkpt lat="42.80931" lon="-0.46456">
        <ele>2252.9870605469</ele>
        <time>2015-03-12T12:00:59Z</time>
      </trkpt>
      <trkpt lat="42.80931" lon="-0.46445">
        <ele>2249.6223144531</ele>
        <time>2015-03-12T12:01:09Z</time>
      </trkpt>
      <trkpt lat="42.80928" lon="-0.46439">
        <ele>2247.2189941406</ele>
        <time>2015-03-12T12:01:23Z</time>
      </trkpt>
      <trkpt lat="42.80921" lon="-0.46436">
        <ele>2243.8544921875</ele>
        <time>2015-03-12T12:01:34Z</time>
      </trkpt>
      <trkpt lat="42.80917" lon="-0.46434">
        <ele>2241.9318847656</ele>
        <time>2015-03-12T12:01:39Z</time>
      </trkpt>
      <trkpt lat="42.80914" lon="-0.46429">
        <ele>2240.0092773438</ele>
        <time>2015-03-12T12:01:54Z</time>
      </trkpt>
      <trkpt lat="42.80914" lon="-0.46422">
        <ele>2238.0866699219</ele>
        <time>2015-03-12T12:02:02Z</time>
      </trkpt>
      <trkpt lat="42.80911" lon="-0.46418">
        <ele>2235.6831054688</ele>
        <time>2015-03-12T12:02:14Z</time>
      </trkpt>
      <trkpt lat="42.80906" lon="-0.46418">
        <ele>2234.2412109375</ele>
        <time>2015-03-12T12:02:22Z</time>
      </trkpt>
      <trkpt lat="42.80898" lon="-0.46413">
        <ele>2230.3959960938</ele>
        <time>2015-03-12T12:02:34Z</time>
      </trkpt>
      <trkpt lat="42.80891" lon="-0.4641">
        <ele>2227.5119628906</ele>
        <time>2015-03-12T12:02:42Z</time>
      </trkpt>
      <trkpt lat="42.80887" lon="-0.46405">
        <ele>2226.55078125</ele>
        <time>2015-03-12T12:02:48Z</time>
      </trkpt>
      <trkpt lat="42.80881" lon="-0.46401">
        <ele>2225.1086425781</ele>
        <time>2015-03-12T12:02:54Z</time>
      </trkpt>
      <trkpt lat="42.80873" lon="-0.46398">
        <ele>2224.6281738281</ele>
        <time>2015-03-12T12:03:01Z</time>
      </trkpt>
      <trkpt lat="42.80851" lon="-0.4639">
        <ele>2223.6667480469</ele>
        <time>2015-03-12T12:03:19Z</time>
      </trkpt>
      <trkpt lat="42.80833" lon="-0.46377">
        <ele>2220.7829589844</ele>
        <time>2015-03-12T12:03:36Z</time>
      </trkpt>
      <trkpt lat="42.80816" lon="-0.46369">
        <ele>2217.41796875</ele>
        <time>2015-03-12T12:03:52Z</time>
      </trkpt>
      <trkpt lat="42.80794" lon="-0.46359">
        <ele>2215.0148925781</ele>
        <time>2015-03-12T12:04:08Z</time>
      </trkpt>
      <trkpt lat="42.80777" lon="-0.46347">
        <ele>2214.0534667969</ele>
        <time>2015-03-12T12:04:23Z</time>
      </trkpt>
      <trkpt lat="42.80772" lon="-0.46339">
        <ele>2213.5727539062</ele>
        <time>2015-03-12T12:04:29Z</time>
      </trkpt>
      <trkpt lat="42.80765" lon="-0.46306">
        <ele>2210.2082519531</ele>
        <time>2015-03-12T12:04:48Z</time>
      </trkpt>
      <trkpt lat="42.80769" lon="-0.4628">
        <ele>2208.7663574219</ele>
        <time>2015-03-12T12:05:04Z</time>
      </trkpt>
      <trkpt lat="42.8077" lon="-0.46269">
        <ele>2207.8051757812</ele>
        <time>2015-03-12T12:05:09Z</time>
      </trkpt>
      <trkpt lat="42.80773" lon="-0.46265">
        <ele>2207.3244628906</ele>
        <time>2015-03-12T12:05:13Z</time>
      </trkpt>
      <trkpt lat="42.80772" lon="-0.46254">
        <ele>2205.8823242188</ele>
        <time>2015-03-12T12:05:19Z</time>
      </trkpt>
      <trkpt lat="42.80775" lon="-0.46236">
        <ele>2202.517578125</ele>
        <time>2015-03-12T12:05:33Z</time>
      </trkpt>
      <trkpt lat="42.80776" lon="-0.46209">
        <ele>2198.6723632812</ele>
        <time>2015-03-12T12:05:47Z</time>
      </trkpt>
      <trkpt lat="42.80776" lon="-0.46201">
        <ele>2195.3078613281</ele>
        <time>2015-03-12T12:06:00Z</time>
      </trkpt>
      <trkpt lat="42.80776" lon="-0.46198">
        <ele>2194.3464355469</ele>
        <time>2015-03-12T12:06:03Z</time>
      </trkpt>
      <trkpt lat="42.80777" lon="-0.46177">
        <ele>2190.9819335938</ele>
        <time>2015-03-12T12:06:18Z</time>
      </trkpt>
      <trkpt lat="42.80783" lon="-0.46173">
        <ele>2187.6171875</ele>
        <time>2015-03-12T12:06:27Z</time>
      </trkpt>
      <trkpt lat="42.80786" lon="-0.46171">
        <ele>2185.6945800781</ele>
        <time>2015-03-12T12:06:31Z</time>
      </trkpt>
      <trkpt lat="42.80789" lon="-0.4617">
        <ele>2184.7333984375</ele>
        <time>2015-03-12T12:06:35Z</time>
      </trkpt>
      <trkpt lat="42.80789" lon="-0.46166">
        <ele>2183.2912597656</ele>
        <time>2015-03-12T12:06:38Z</time>
      </trkpt>
      <trkpt lat="42.808" lon="-0.46153">
        <ele>2179.4460449219</ele>
        <time>2015-03-12T12:06:53Z</time>
      </trkpt>
      <trkpt lat="42.80809" lon="-0.46146">
        <ele>2176.5622558594</ele>
        <time>2015-03-12T12:07:05Z</time>
      </trkpt>
      <trkpt lat="42.80815" lon="-0.4614">
        <ele>2173.6782226562</ele>
        <time>2015-03-12T12:07:15Z</time>
      </trkpt>
      <trkpt lat="42.8082" lon="-0.46135">
        <ele>2169.8327636719</ele>
        <time>2015-03-12T12:07:23Z</time>
      </trkpt>
      <trkpt lat="42.80827" lon="-0.46128">
        <ele>2166.9489746094</ele>
        <time>2015-03-12T12:07:34Z</time>
      </trkpt>
      <trkpt lat="42.80828" lon="-0.46126">
        <ele>2166.9489746094</ele>
        <time>2015-03-12T12:07:36Z</time>
      </trkpt>
      <trkpt lat="42.80833" lon="-0.46111">
        <ele>2164.0649414062</ele>
        <time>2015-03-12T12:07:49Z</time>
      </trkpt>
      <trkpt lat="42.80838" lon="-0.461">
        <ele>2159.2585449219</ele>
        <time>2015-03-12T12:08:01Z</time>
      </trkpt>
      <trkpt lat="42.80838" lon="-0.46099">
        <ele>2159.2585449219</ele>
        <time>2015-03-12T12:08:02Z</time>
      </trkpt>
      <trkpt lat="42.8084" lon="-0.46093">
        <ele>2157.3359375</ele>
        <time>2015-03-12T12:08:09Z</time>
      </trkpt>
      <trkpt lat="42.80845" lon="-0.46078">
        <ele>2153.9711914062</ele>
        <time>2015-03-12T12:08:23Z</time>
      </trkpt>
      <trkpt lat="42.80851" lon="-0.46065">
        <ele>2150.1259765625</ele>
        <time>2015-03-12T12:08:34Z</time>
      </trkpt>
      <trkpt lat="42.80857" lon="-0.46054">
        <ele>2146.7612304688</ele>
        <time>2015-03-12T12:08:46Z</time>
      </trkpt>
      <trkpt lat="42.80862" lon="-0.46042">
        <ele>2143.3967285156</ele>
        <time>2015-03-12T12:08:56Z</time>
      </trkpt>
      <trkpt lat="42.80865" lon="-0.46034">
        <ele>2140.9934082031</ele>
        <time>2015-03-12T12:09:02Z</time>
      </trkpt>
      <trkpt lat="42.8087" lon="-0.46022">
        <ele>2138.109375</ele>
        <time>2015-03-12T12:09:14Z</time>
      </trkpt>
      <trkpt lat="42.80871" lon="-0.4602">
        <ele>2137.6286621094</ele>
        <time>2015-03-12T12:09:16Z</time>
      </trkpt>
      <trkpt lat="42.80872" lon="-0.46016">
        <ele>2136.1867675781</ele>
        <time>2015-03-12T12:09:19Z</time>
      </trkpt>
      <trkpt lat="42.80873" lon="-0.46015">
        <ele>2136.1867675781</ele>
        <time>2015-03-12T12:09:20Z</time>
      </trkpt>
      <trkpt lat="42.80879" lon="-0.45998">
        <ele>2132.8220214844</ele>
        <time>2015-03-12T12:09:33Z</time>
      </trkpt>
      <trkpt lat="42.8088" lon="-0.45981">
        <ele>2129.4575195312</ele>
        <time>2015-03-12T12:09:43Z</time>
      </trkpt>
      <trkpt lat="42.80882" lon="-0.45978">
        <ele>2128.015625</ele>
        <time>2015-03-12T12:09:46Z</time>
      </trkpt>
      <trkpt lat="42.80885" lon="-0.4597">
        <ele>2127.0544433594</ele>
        <time>2015-03-12T12:09:52Z</time>
      </trkpt>
      <trkpt lat="42.8089" lon="-0.45958">
        <ele>2123.208984375</ele>
        <time>2015-03-12T12:10:03Z</time>
      </trkpt>
      <trkpt lat="42.80897" lon="-0.45933">
        <ele>2120.8056640625</ele>
        <time>2015-03-12T12:10:19Z</time>
      </trkpt>
      <trkpt lat="42.80901" lon="-0.45925">
        <ele>2119.3637695312</ele>
        <time>2015-03-12T12:10:25Z</time>
      </trkpt>
      <trkpt lat="42.80903" lon="-0.45917">
        <ele>2118.40234375</ele>
        <time>2015-03-12T12:10:30Z</time>
      </trkpt>
      <trkpt lat="42.80913" lon="-0.45892">
        <ele>2116.9604492188</ele>
        <time>2015-03-12T12:10:48Z</time>
      </trkpt>
      <trkpt lat="42.80922" lon="-0.4587">
        <ele>2115.9990234375</ele>
        <time>2015-03-12T12:11:04Z</time>
      </trkpt>
      <trkpt lat="42.80931" lon="-0.45846">
        <ele>2115.0378417969</ele>
        <time>2015-03-12T12:11:21Z</time>
      </trkpt>
      <trkpt lat="42.80933" lon="-0.45839">
        <ele>2114.5571289062</ele>
        <time>2015-03-12T12:11:25Z</time>
      </trkpt>
      <trkpt lat="42.8094" lon="-0.4582">
        <ele>2114.0764160156</ele>
        <time>2015-03-12T12:11:40Z</time>
      </trkpt>
      <trkpt lat="42.80943" lon="-0.45806">
        <ele>2113.115234375</ele>
        <time>2015-03-12T12:11:50Z</time>
      </trkpt>
      <trkpt lat="42.80956" lon="-0.45782">
        <ele>2111.1926269531</ele>
        <time>2015-03-12T12:12:10Z</time>
      </trkpt>
      <trkpt lat="42.80956" lon="-0.45768">
        <ele>2110.7119140625</ele>
        <time>2015-03-12T12:12:29Z</time>
      </trkpt>
      <trkpt lat="42.80952" lon="-0.45766">
        <ele>2110.2312011719</ele>
        <time>2015-03-12T12:12:59Z</time>
      </trkpt>
      <trkpt lat="42.80951" lon="-0.45766">
        <ele>2110.7119140625</ele>
        <time>2015-03-12T12:13:18Z</time>
      </trkpt>
      <trkpt lat="42.8095" lon="-0.4577">
        <ele>2110.2312011719</ele>
        <time>2015-03-12T12:13:58Z</time>
      </trkpt>
      <trkpt lat="42.80953" lon="-0.45769">
        <ele>2111.1926269531</ele>
        <time>2015-03-12T12:14:16Z</time>
      </trkpt>
      <trkpt lat="42.80952" lon="-0.45764">
        <ele>2111.1926269531</ele>
        <time>2015-03-12T12:14:30Z</time>
      </trkpt>
      <trkpt lat="42.80953" lon="-0.45761">
        <ele>2110.7119140625</ele>
        <time>2015-03-12T12:14:52Z</time>
      </trkpt>
      <trkpt lat="42.80953" lon="-0.4576">
        <ele>2109.7504882812</ele>
        <time>2015-03-12T12:15:00Z</time>
      </trkpt>
      <trkpt lat="42.80953" lon="-0.45759">
        <ele>2109.2700195312</ele>
        <time>2015-03-12T12:15:16Z</time>
      </trkpt>
      <trkpt lat="42.80953" lon="-0.45759">
        <ele>2110.7119140625</ele>
        <time>2015-03-12T12:15:29Z</time>
      </trkpt>
      <trkpt lat="42.80954" lon="-0.45758">
        <ele>2111.1926269531</ele>
        <time>2015-03-12T12:15:58Z</time>
      </trkpt>
      <trkpt lat="42.80954" lon="-0.45758">
        <ele>2109.7504882812</ele>
        <time>2015-03-12T12:16:38Z</time>
      </trkpt>
      <trkpt lat="42.80952" lon="-0.4576">
        <ele>2109.7504882812</ele>
        <time>2015-03-12T12:17:36Z</time>
      </trkpt>
      <trkpt lat="42.8095" lon="-0.45766">
        <ele>2109.7504882812</ele>
        <time>2015-03-12T12:18:30Z</time>
      </trkpt>
      <trkpt lat="42.80951" lon="-0.45766">
        <ele>2109.7504882812</ele>
        <time>2015-03-12T12:19:44Z</time>
      </trkpt>
      <trkpt lat="42.8095" lon="-0.45771">
        <ele>2109.2700195312</ele>
        <time>2015-03-12T12:20:16Z</time>
      </trkpt>
      <trkpt lat="42.80951" lon="-0.45763">
        <ele>2110.7119140625</ele>
        <time>2015-03-12T12:22:17Z</time>
      </trkpt>
      <trkpt lat="42.80949" lon="-0.45763">
        <ele>2110.7119140625</ele>
        <time>2015-03-12T12:22:55Z</time>
      </trkpt>
      <trkpt lat="42.80949" lon="-0.45764">
        <ele>2111.1926269531</ele>
        <time>2015-03-12T12:24:15Z</time>
      </trkpt>
      <trkpt lat="42.80951" lon="-0.45765">
        <ele>2110.7119140625</ele>
        <time>2015-03-12T12:26:08Z</time>
      </trkpt>
      <trkpt lat="42.80954" lon="-0.45769">
        <ele>2110.7119140625</ele>
        <time>2015-03-12T12:27:28Z</time>
      </trkpt>
      <trkpt lat="42.80953" lon="-0.45766">
        <ele>2109.7504882812</ele>
        <time>2015-03-12T12:27:57Z</time>
      </trkpt>
      <trkpt lat="42.80954" lon="-0.45764">
        <ele>2110.2312011719</ele>
        <time>2015-03-12T12:28:28Z</time>
      </trkpt>
      <trkpt lat="42.80954" lon="-0.45761">
        <ele>2108.7893066406</ele>
        <time>2015-03-12T12:28:40Z</time>
      </trkpt>
      <trkpt lat="42.80952" lon="-0.45764">
        <ele>2108.30859375</ele>
        <time>2015-03-12T12:29:56Z</time>
      </trkpt>
      <trkpt lat="42.80951" lon="-0.45761">
        <ele>2108.30859375</ele>
        <time>2015-03-12T12:30:19Z</time>
      </trkpt>
      <trkpt lat="42.8095" lon="-0.45754">
        <ele>2107.8278808594</ele>
        <time>2015-03-12T12:30:42Z</time>
      </trkpt>
      <trkpt lat="42.80951" lon="-0.45753">
        <ele>2107.8278808594</ele>
        <time>2015-03-12T12:31:04Z</time>
      </trkpt>
      <trkpt lat="42.80951" lon="-0.45757">
        <ele>2107.8278808594</ele>
        <time>2015-03-12T12:31:39Z</time>
      </trkpt>
      <trkpt lat="42.80954" lon="-0.45768">
        <ele>2107.8278808594</ele>
        <time>2015-03-12T12:32:38Z</time>
      </trkpt>
      <trkpt lat="42.80956" lon="-0.45769">
        <ele>2107.3471679688</ele>
        <time>2015-03-12T12:33:43Z</time>
      </trkpt>
      <trkpt lat="42.80952" lon="-0.45768">
        <ele>2107.3471679688</ele>
        <time>2015-03-12T12:34:47Z</time>
      </trkpt>
      <trkpt lat="42.80956" lon="-0.4578">
        <ele>2106.8664550781</ele>
        <time>2015-03-12T12:35:44Z</time>
      </trkpt>
      <trkpt lat="42.80952" lon="-0.45773">
        <ele>2106.8664550781</ele>
        <time>2015-03-12T12:36:27Z</time>
      </trkpt>
      <trkpt lat="42.80952" lon="-0.45772">
        <ele>2107.3471679688</ele>
        <time>2015-03-12T12:37:09Z</time>
      </trkpt>
      <trkpt lat="42.80952" lon="-0.45768">
        <ele>2106.8664550781</ele>
        <time>2015-03-12T12:37:37Z</time>
      </trkpt>
      <trkpt lat="42.80951" lon="-0.45765">
        <ele>2106.3857421875</ele>
        <time>2015-03-12T12:38:03Z</time>
      </trkpt>
      <trkpt lat="42.80949" lon="-0.45762">
        <ele>2107.3471679688</ele>
        <time>2015-03-12T12:38:45Z</time>
      </trkpt>
      <trkpt lat="42.80953" lon="-0.45768">
        <ele>2107.3471679688</ele>
        <time>2015-03-12T12:40:03Z</time>
      </trkpt>
      <trkpt lat="42.80952" lon="-0.45764">
        <ele>2106.3857421875</ele>
        <time>2015-03-12T12:40:29Z</time>
      </trkpt>
      <trkpt lat="42.80951" lon="-0.4576">
        <ele>2105.9050292969</ele>
        <time>2015-03-12T12:41:11Z</time>
      </trkpt>
      <trkpt lat="42.80952" lon="-0.45764">
        <ele>2105.9050292969</ele>
        <time>2015-03-12T12:42:05Z</time>
      </trkpt>
      <trkpt lat="42.80951" lon="-0.45758">
        <ele>2105.9050292969</ele>
        <time>2015-03-12T12:42:50Z</time>
      </trkpt>
      <trkpt lat="42.8095" lon="-0.45757">
        <ele>2106.3857421875</ele>
        <time>2015-03-12T12:43:43Z</time>
      </trkpt>
      <trkpt lat="42.80952" lon="-0.45762">
        <ele>2106.8664550781</ele>
        <time>2015-03-12T12:44:30Z</time>
      </trkpt>
      <trkpt lat="42.80953" lon="-0.45766">
        <ele>2105.9050292969</ele>
        <time>2015-03-12T12:45:00Z</time>
      </trkpt>
      <trkpt lat="42.80954" lon="-0.45764">
        <ele>2106.3857421875</ele>
        <time>2015-03-12T12:45:25Z</time>
      </trkpt>
      <trkpt lat="42.80952" lon="-0.45764">
        <ele>2106.3857421875</ele>
        <time>2015-03-12T12:46:06Z</time>
      </trkpt>
      <trkpt lat="42.80953" lon="-0.45764">
        <ele>2105.4245605469</ele>
        <time>2015-03-12T12:46:33Z</time>
      </trkpt>
      <trkpt lat="42.80954" lon="-0.45764">
        <ele>2105.9050292969</ele>
        <time>2015-03-12T12:46:58Z</time>
      </trkpt>
      <trkpt lat="42.80954" lon="-0.45764">
        <ele>2105.9050292969</ele>
        <time>2015-03-12T12:47:32Z</time>
      </trkpt>
      <trkpt lat="42.80952" lon="-0.45764">
        <ele>2105.9050292969</ele>
        <time>2015-03-12T12:48:06Z</time>
      </trkpt>
      <trkpt lat="42.80952" lon="-0.45761">
        <ele>2101.5793457031</ele>
        <time>2015-03-12T12:48:46Z</time>
      </trkpt>
      <trkpt lat="42.80952" lon="-0.45761">
        <ele>2108.30859375</ele>
        <time>2015-03-12T12:48:47Z</time>
      </trkpt>
      <trkpt lat="42.80952" lon="-0.45761">
        <ele>2106.8664550781</ele>
        <time>2015-03-12T12:48:48Z</time>
      </trkpt>
      <trkpt lat="42.80949" lon="-0.45761">
        <ele>2104.9438476562</ele>
        <time>2015-03-12T12:49:32Z</time>
      </trkpt>
      <trkpt lat="42.80947" lon="-0.4576">
        <ele>2105.9050292969</ele>
        <time>2015-03-12T12:51:16Z</time>
      </trkpt>
      <trkpt lat="42.80948" lon="-0.4576">
        <ele>2103.0212402344</ele>
        <time>2015-03-12T13:10:45Z</time>
      </trkpt>
      <trkpt lat="42.80947" lon="-0.45758">
        <ele>2102.5405273438</ele>
        <time>2015-03-12T13:14:16Z</time>
      </trkpt>
      <trkpt lat="42.80948" lon="-0.45762">
        <ele>2099.1760253906</ele>
        <time>2015-03-12T13:20:42Z</time>
      </trkpt>
      <trkpt lat="42.80948" lon="-0.45759">
        <ele>2100.1374511719</ele>
        <time>2015-03-12T13:23:39Z</time>
      </trkpt>
      <trkpt lat="42.80948" lon="-0.4576">
        <ele>2098.2145996094</ele>
        <time>2015-03-12T13:25:23Z</time>
      </trkpt>
      <trkpt lat="42.80938" lon="-0.45747">
        <ele>2101.5793457031</ele>
        <time>2015-03-12T13:31:11Z</time>
      </trkpt>
      <trkpt lat="42.80946" lon="-0.45753">
        <ele>2099.6567382812</ele>
        <time>2015-03-12T13:32:11Z</time>
      </trkpt>
      <trkpt lat="42.80945" lon="-0.45756">
        <ele>2100.1374511719</ele>
        <time>2015-03-12T13:33:02Z</time>
      </trkpt>
      <trkpt lat="42.80947" lon="-0.45756">
        <ele>2100.6179199219</ele>
        <time>2015-03-12T13:34:49Z</time>
      </trkpt>
      <trkpt lat="42.80948" lon="-0.45759">
        <ele>2100.1374511719</ele>
        <time>2015-03-12T13:37:36Z</time>
      </trkpt>
      <trkpt lat="42.80953" lon="-0.45757">
        <ele>2099.6567382812</ele>
        <time>2015-03-12T13:46:07Z</time>
      </trkpt>
      <trkpt lat="42.80952" lon="-0.45757">
        <ele>2098.2145996094</ele>
        <time>2015-03-12T13:46:10Z</time>
      </trkpt>
      <trkpt lat="42.80952" lon="-0.45757">
        <ele>2099.6567382812</ele>
        <time>2015-03-12T13:46:13Z</time>
      </trkpt>
      <trkpt lat="42.80951" lon="-0.45755">
        <ele>2100.6179199219</ele>
        <time>2015-03-12T13:46:33Z</time>
      </trkpt>
      <trkpt lat="42.80951" lon="-0.45761">
        <ele>2101.5793457031</ele>
        <time>2015-03-12T13:46:50Z</time>
      </trkpt>
      <trkpt lat="42.80951" lon="-0.45759">
        <ele>2102.0598144531</ele>
        <time>2015-03-12T13:47:03Z</time>
      </trkpt>
      <trkpt lat="42.80953" lon="-0.4576">
        <ele>2101.5793457031</ele>
        <time>2015-03-12T13:47:21Z</time>
      </trkpt>
      <trkpt lat="42.80951" lon="-0.45761">
        <ele>2100.6179199219</ele>
        <time>2015-03-12T13:47:38Z</time>
      </trkpt>
      <trkpt lat="42.80949" lon="-0.4575">
        <ele>2101.0986328125</ele>
        <time>2015-03-12T13:48:15Z</time>
      </trkpt>
      <trkpt lat="42.8095" lon="-0.4576">
        <ele>2101.5793457031</ele>
        <time>2015-03-12T13:48:50Z</time>
      </trkpt>
      <trkpt lat="42.80951" lon="-0.45763">
        <ele>2101.5793457031</ele>
        <time>2015-03-12T13:49:11Z</time>
      </trkpt>
      <trkpt lat="42.80949" lon="-0.45765">
        <ele>2101.5793457031</ele>
        <time>2015-03-12T13:49:25Z</time>
      </trkpt>
      <trkpt lat="42.80943" lon="-0.45761">
        <ele>2099.1760253906</ele>
        <time>2015-03-12T13:49:44Z</time>
      </trkpt>
      <trkpt lat="42.8094" lon="-0.45755">
        <ele>2098.6953125</ele>
        <time>2015-03-12T13:49:57Z</time>
      </trkpt>
      <trkpt lat="42.8094" lon="-0.45748">
        <ele>2094.8500976562</ele>
        <time>2015-03-12T13:50:21Z</time>
      </trkpt>
      <trkpt lat="42.80937" lon="-0.45743">
        <ele>2094.3693847656</ele>
        <time>2015-03-12T13:50:39Z</time>
      </trkpt>
      <trkpt lat="42.80931" lon="-0.4573">
        <ele>2093.408203125</ele>
        <time>2015-03-12T13:50:57Z</time>
      </trkpt>
      <trkpt lat="42.8093" lon="-0.45709">
        <ele>2092.4470214844</ele>
        <time>2015-03-12T13:51:16Z</time>
      </trkpt>
      <trkpt lat="42.80928" lon="-0.45693">
        <ele>2089.08203125</ele>
        <time>2015-03-12T13:51:31Z</time>
      </trkpt>
      <trkpt lat="42.80925" lon="-0.45674">
        <ele>2088.1208496094</ele>
        <time>2015-03-12T13:51:49Z</time>
      </trkpt>
      <trkpt lat="42.80921" lon="-0.45659">
        <ele>2087.6401367188</ele>
        <time>2015-03-12T13:52:03Z</time>
      </trkpt>
      <trkpt lat="42.8092" lon="-0.45641">
        <ele>2087.1594238281</ele>
        <time>2015-03-12T13:52:18Z</time>
      </trkpt>
      <trkpt lat="42.80921" lon="-0.45625">
        <ele>2085.7175292969</ele>
        <time>2015-03-12T13:52:34Z</time>
      </trkpt>
      <trkpt lat="42.8092" lon="-0.45608">
        <ele>2084.2756347656</ele>
        <time>2015-03-12T13:52:49Z</time>
      </trkpt>
      <trkpt lat="42.80921" lon="-0.45591">
        <ele>2082.8334960938</ele>
        <time>2015-03-12T13:53:04Z</time>
      </trkpt>
      <trkpt lat="42.8092" lon="-0.45572">
        <ele>2082.8334960938</ele>
        <time>2015-03-12T13:53:19Z</time>
      </trkpt>
      <trkpt lat="42.80917" lon="-0.45555">
        <ele>2082.3530273438</ele>
        <time>2015-03-12T13:53:33Z</time>
      </trkpt>
      <trkpt lat="42.80917" lon="-0.45535">
        <ele>2081.3916015625</ele>
        <time>2015-03-12T13:53:49Z</time>
      </trkpt>
      <trkpt lat="42.80912" lon="-0.45516">
        <ele>2078.98828125</ele>
        <time>2015-03-12T13:54:04Z</time>
      </trkpt>
      <trkpt lat="42.80913" lon="-0.45501">
        <ele>2078.0270996094</ele>
        <time>2015-03-12T13:54:16Z</time>
      </trkpt>
      <trkpt lat="42.80911" lon="-0.45484">
        <ele>2078.0270996094</ele>
        <time>2015-03-12T13:54:31Z</time>
      </trkpt>
      <trkpt lat="42.80913" lon="-0.45479">
        <ele>2078.5078125</ele>
        <time>2015-03-12T13:54:35Z</time>
      </trkpt>
      <trkpt lat="42.80919" lon="-0.45461">
        <ele>2078.98828125</ele>
        <time>2015-03-12T13:54:51Z</time>
      </trkpt>
      <trkpt lat="42.8092" lon="-0.45436">
        <ele>2078.5078125</ele>
        <time>2015-03-12T13:55:11Z</time>
      </trkpt>
      <trkpt lat="42.80923" lon="-0.45423">
        <ele>2077.5463867188</ele>
        <time>2015-03-12T13:55:22Z</time>
      </trkpt>
      <trkpt lat="42.80928" lon="-0.45401">
        <ele>2075.6235351562</ele>
        <time>2015-03-12T13:55:40Z</time>
      </trkpt>
      <trkpt lat="42.8093" lon="-0.4538">
        <ele>2072.7397460938</ele>
        <time>2015-03-12T13:55:58Z</time>
      </trkpt>
      <trkpt lat="42.80926" lon="-0.45359">
        <ele>2071.2976074219</ele>
        <time>2015-03-12T13:56:16Z</time>
      </trkpt>
      <trkpt lat="42.80926" lon="-0.45349">
        <ele>2067.9331054688</ele>
        <time>2015-03-12T13:56:26Z</time>
      </trkpt>
      <trkpt lat="42.80925" lon="-0.45348">
        <ele>2067.9331054688</ele>
        <time>2015-03-12T13:56:27Z</time>
      </trkpt>
      <trkpt lat="42.80927" lon="-0.45333">
        <ele>2066.0104980469</ele>
        <time>2015-03-12T13:56:44Z</time>
      </trkpt>
      <trkpt lat="42.80927" lon="-0.45328">
        <ele>2062.6459960938</ele>
        <time>2015-03-12T13:56:51Z</time>
      </trkpt>
      <trkpt lat="42.80927" lon="-0.45312">
        <ele>2059.28125</ele>
        <time>2015-03-12T13:57:07Z</time>
      </trkpt>
      <trkpt lat="42.80926" lon="-0.45311">
        <ele>2059.28125</ele>
        <time>2015-03-12T13:57:08Z</time>
      </trkpt>
      <trkpt lat="42.8093" lon="-0.45291">
        <ele>2056.3972167969</ele>
        <time>2015-03-12T13:57:28Z</time>
      </trkpt>
      <trkpt lat="42.8093" lon="-0.45278">
        <ele>2053.5134277344</ele>
        <time>2015-03-12T13:57:40Z</time>
      </trkpt>
      <trkpt lat="42.80931" lon="-0.45269">
        <ele>2052.0712890625</ele>
        <time>2015-03-12T13:57:49Z</time>
      </trkpt>
      <trkpt lat="42.80936" lon="-0.45246">
        <ele>2050.6293945312</ele>
        <time>2015-03-12T13:58:07Z</time>
      </trkpt>
      <trkpt lat="42.8094" lon="-0.45227">
        <ele>2048.7067871094</ele>
        <time>2015-03-12T13:58:23Z</time>
      </trkpt>
      <trkpt lat="42.80941" lon="-0.45221">
        <ele>2046.7841796875</ele>
        <time>2015-03-12T13:58:28Z</time>
      </trkpt>
      <trkpt lat="42.80945" lon="-0.4521">
        <ele>2046.3037109375</ele>
        <time>2015-03-12T13:58:38Z</time>
      </trkpt>
      <trkpt lat="42.80957" lon="-0.45192">
        <ele>2044.8615722656</ele>
        <time>2015-03-12T13:58:57Z</time>
      </trkpt>
      <trkpt lat="42.80964" lon="-0.45182">
        <ele>2041.4968261719</ele>
        <time>2015-03-12T13:59:08Z</time>
      </trkpt>
      <trkpt lat="42.80971" lon="-0.45171">
        <ele>2038.6130371094</ele>
        <time>2015-03-12T13:59:21Z</time>
      </trkpt>
      <trkpt lat="42.80982" lon="-0.45156">
        <ele>2035.2482910156</ele>
        <time>2015-03-12T13:59:38Z</time>
      </trkpt>
      <trkpt lat="42.80993" lon="-0.45142">
        <ele>2031.8837890625</ele>
        <time>2015-03-12T13:59:56Z</time>
      </trkpt>
      <trkpt lat="42.81004" lon="-0.45131">
        <ele>2028.9997558594</ele>
        <time>2015-03-12T14:00:14Z</time>
      </trkpt>
      <trkpt lat="42.81016" lon="-0.4512">
        <ele>2025.6350097656</ele>
        <time>2015-03-12T14:00:29Z</time>
      </trkpt>
      <trkpt lat="42.8103" lon="-0.45108">
        <ele>2022.7512207031</ele>
        <time>2015-03-12T14:00:47Z</time>
      </trkpt>
      <trkpt lat="42.81044" lon="-0.45095">
        <ele>2019.8671875</ele>
        <time>2015-03-12T14:01:03Z</time>
      </trkpt>
      <trkpt lat="42.81049" lon="-0.45087">
        <ele>2017.9445800781</ele>
        <time>2015-03-12T14:01:11Z</time>
      </trkpt>
      <trkpt lat="42.81051" lon="-0.45085">
        <ele>2016.9833984375</ele>
        <time>2015-03-12T14:01:13Z</time>
      </trkpt>
      <trkpt lat="42.81054" lon="-0.45081">
        <ele>2015.5415039062</ele>
        <time>2015-03-12T14:01:17Z</time>
      </trkpt>
      <trkpt lat="42.81064" lon="-0.4507">
        <ele>2013.1381835938</ele>
        <time>2015-03-12T14:01:31Z</time>
      </trkpt>
      <trkpt lat="42.81077" lon="-0.45056">
        <ele>2009.7731933594</ele>
        <time>2015-03-12T14:01:49Z</time>
      </trkpt>
      <trkpt lat="42.81083" lon="-0.45046">
        <ele>2006.8894042969</ele>
        <time>2015-03-12T14:01:58Z</time>
      </trkpt>
      <trkpt lat="42.81096" lon="-0.45025">
        <ele>2004.966796875</ele>
        <time>2015-03-12T14:02:18Z</time>
      </trkpt>
      <trkpt lat="42.81101" lon="-0.45011">
        <ele>2002.0827636719</ele>
        <time>2015-03-12T14:02:30Z</time>
      </trkpt>
      <trkpt lat="42.81114" lon="-0.44988">
        <ele>1999.1989746094</ele>
        <time>2015-03-12T14:02:51Z</time>
      </trkpt>
      <trkpt lat="42.81129" lon="-0.44963">
        <ele>1996.3151855469</ele>
        <time>2015-03-12T14:03:13Z</time>
      </trkpt>
      <trkpt lat="42.8114" lon="-0.44941">
        <ele>1994.8728027344</ele>
        <time>2015-03-12T14:03:33Z</time>
      </trkpt>
      <trkpt lat="42.81151" lon="-0.44921">
        <ele>1994.3920898438</ele>
        <time>2015-03-12T14:03:51Z</time>
      </trkpt>
      <trkpt lat="42.81163" lon="-0.44895">
        <ele>1990.546875</ele>
        <time>2015-03-12T14:04:14Z</time>
      </trkpt>
      <trkpt lat="42.81168" lon="-0.4487">
        <ele>1986.7016601562</ele>
        <time>2015-03-12T14:04:35Z</time>
      </trkpt>
      <trkpt lat="42.81168" lon="-0.44869">
        <ele>1986.7016601562</ele>
        <time>2015-03-12T14:04:36Z</time>
      </trkpt>
      <trkpt lat="42.81171" lon="-0.44858">
        <ele>1984.2985839844</ele>
        <time>2015-03-12T14:04:46Z</time>
      </trkpt>
      <trkpt lat="42.81178" lon="-0.44835">
        <ele>1981.8952636719</ele>
        <time>2015-03-12T14:05:04Z</time>
      </trkpt>
      <trkpt lat="42.81182" lon="-0.4483">
        <ele>1981.4145507812</ele>
        <time>2015-03-12T14:05:09Z</time>
      </trkpt>
      <trkpt lat="42.81188" lon="-0.44817">
        <ele>1979.9724121094</ele>
        <time>2015-03-12T14:05:23Z</time>
      </trkpt>
      <trkpt lat="42.81189" lon="-0.44794">
        <ele>1975.646484375</ele>
        <time>2015-03-12T14:05:40Z</time>
      </trkpt>
      <trkpt lat="42.81199" lon="-0.4477">
        <ele>1973.2434082031</ele>
        <time>2015-03-12T14:06:01Z</time>
      </trkpt>
      <trkpt lat="42.81209" lon="-0.44743">
        <ele>1970.359375</ele>
        <time>2015-03-12T14:06:21Z</time>
      </trkpt>
      <trkpt lat="42.81214" lon="-0.44727">
        <ele>1966.9948730469</ele>
        <time>2015-03-12T14:06:33Z</time>
      </trkpt>
      <trkpt lat="42.81219" lon="-0.447">
        <ele>1966.0334472656</ele>
        <time>2015-03-12T14:06:52Z</time>
      </trkpt>
      <trkpt lat="42.81225" lon="-0.4467">
        <ele>1963.1494140625</ele>
        <time>2015-03-12T14:07:13Z</time>
      </trkpt>
      <trkpt lat="42.81226" lon="-0.44637">
        <ele>1961.2268066406</ele>
        <time>2015-03-12T14:07:36Z</time>
      </trkpt>
      <trkpt lat="42.81224" lon="-0.44612">
        <ele>1959.7846679688</ele>
        <time>2015-03-12T14:07:55Z</time>
      </trkpt>
      <trkpt lat="42.81221" lon="-0.44592">
        <ele>1955.939453125</ele>
        <time>2015-03-12T14:08:11Z</time>
      </trkpt>
      <trkpt lat="42.81221" lon="-0.44573">
        <ele>1952.5749511719</ele>
        <time>2015-03-12T14:08:28Z</time>
      </trkpt>
      <trkpt lat="42.8122" lon="-0.44562">
        <ele>1950.171875</ele>
        <time>2015-03-12T14:08:36Z</time>
      </trkpt>
      <trkpt lat="42.8122" lon="-0.44547">
        <ele>1946.8068847656</ele>
        <time>2015-03-12T14:08:48Z</time>
      </trkpt>
      <trkpt lat="42.81224" lon="-0.44519">
        <ele>1943.9230957031</ele>
        <time>2015-03-12T14:09:08Z</time>
      </trkpt>
      <trkpt lat="42.81228" lon="-0.44498">
        <ele>1940.5583496094</ele>
        <time>2015-03-12T14:09:23Z</time>
      </trkpt>
      <trkpt lat="42.81237" lon="-0.44474">
        <ele>1938.1552734375</ele>
        <time>2015-03-12T14:09:43Z</time>
      </trkpt>
      <trkpt lat="42.81244" lon="-0.44452">
        <ele>1935.2712402344</ele>
        <time>2015-03-12T14:10:00Z</time>
      </trkpt>
      <trkpt lat="42.81251" lon="-0.44431">
        <ele>1933.3486328125</ele>
        <time>2015-03-12T14:10:17Z</time>
      </trkpt>
      <trkpt lat="42.81258" lon="-0.44403">
        <ele>1932.8679199219</ele>
        <time>2015-03-12T14:10:39Z</time>
      </trkpt>
      <trkpt lat="42.81263" lon="-0.44376">
        <ele>1931.9064941406</ele>
        <time>2015-03-12T14:11:00Z</time>
      </trkpt>
      <trkpt lat="42.8127" lon="-0.4435">
        <ele>1929.9838867188</ele>
        <time>2015-03-12T14:11:20Z</time>
      </trkpt>
      <trkpt lat="42.81276" lon="-0.44323">
        <ele>1928.0612792969</ele>
        <time>2015-03-12T14:11:40Z</time>
      </trkpt>
      <trkpt lat="42.8128" lon="-0.44298">
        <ele>1927.1000976562</ele>
        <time>2015-03-12T14:11:59Z</time>
      </trkpt>
      <trkpt lat="42.81284" lon="-0.44275">
        <ele>1928.0612792969</ele>
        <time>2015-03-12T14:12:18Z</time>
      </trkpt>
      <trkpt lat="42.81286" lon="-0.44246">
        <ele>1928.5419921875</ele>
        <time>2015-03-12T14:12:40Z</time>
      </trkpt>
      <trkpt lat="42.81286" lon="-0.44241">
        <ele>1928.5419921875</ele>
        <time>2015-03-12T14:12:44Z</time>
      </trkpt>
      <trkpt lat="42.81284" lon="-0.4423">
        <ele>1925.6579589844</ele>
        <time>2015-03-12T14:12:54Z</time>
      </trkpt>
      <trkpt lat="42.81282" lon="-0.44215">
        <ele>1922.7741699219</ele>
        <time>2015-03-12T14:13:10Z</time>
      </trkpt>
      <trkpt lat="42.81282" lon="-0.44209">
        <ele>1920.3708496094</ele>
        <time>2015-03-12T14:13:16Z</time>
      </trkpt>
      <trkpt lat="42.81281" lon="-0.44194">
        <ele>1917.0063476562</ele>
        <time>2015-03-12T14:13:31Z</time>
      </trkpt>
      <trkpt lat="42.81281" lon="-0.44193">
        <ele>1917.0063476562</ele>
        <time>2015-03-12T14:13:32Z</time>
      </trkpt>
      <trkpt lat="42.81283" lon="-0.44184">
        <ele>1914.1220703125</ele>
        <time>2015-03-12T14:13:40Z</time>
      </trkpt>
      <trkpt lat="42.81284" lon="-0.44179">
        <ele>1913.6413574219</ele>
        <time>2015-03-12T14:13:44Z</time>
      </trkpt>
      <trkpt lat="42.81285" lon="-0.44168">
        <ele>1910.2768554688</ele>
        <time>2015-03-12T14:13:53Z</time>
      </trkpt>
      <trkpt lat="42.81287" lon="-0.44163">
        <ele>1909.7961425781</ele>
        <time>2015-03-12T14:13:57Z</time>
      </trkpt>
      <trkpt lat="42.81287" lon="-0.44146">
        <ele>1905.9509277344</ele>
        <time>2015-03-12T14:14:11Z</time>
      </trkpt>
      <trkpt lat="42.81286" lon="-0.44126">
        <ele>1902.5864257812</ele>
        <time>2015-03-12T14:14:29Z</time>
      </trkpt>
      <trkpt lat="42.81285" lon="-0.44112">
        <ele>1899.7023925781</ele>
        <time>2015-03-12T14:14:41Z</time>
      </trkpt>
      <trkpt lat="42.81285" lon="-0.44092">
        <ele>1895.8571777344</ele>
        <time>2015-03-12T14:15:00Z</time>
      </trkpt>
      <trkpt lat="42.81284" lon="-0.4408">
        <ele>1892.9731445312</ele>
        <time>2015-03-12T14:15:10Z</time>
      </trkpt>
      <trkpt lat="42.81284" lon="-0.44057">
        <ele>1891.0505371094</ele>
        <time>2015-03-12T14:15:29Z</time>
      </trkpt>
      <trkpt lat="42.81284" lon="-0.44038">
        <ele>1887.6860351562</ele>
        <time>2015-03-12T14:15:46Z</time>
      </trkpt>
      <trkpt lat="42.81285" lon="-0.44015">
        <ele>1884.3215332031</ele>
        <time>2015-03-12T14:16:07Z</time>
      </trkpt>
      <trkpt lat="42.81287" lon="-0.43998">
        <ele>1880.9567871094</ele>
        <time>2015-03-12T14:16:21Z</time>
      </trkpt>
      <trkpt lat="42.81287" lon="-0.43974">
        <ele>1879.0339355469</ele>
        <time>2015-03-12T14:16:41Z</time>
      </trkpt>
      <trkpt lat="42.81288" lon="-0.43955">
        <ele>1876.630859375</ele>
        <time>2015-03-12T14:16:57Z</time>
      </trkpt>
      <trkpt lat="42.81287" lon="-0.43932">
        <ele>1874.7082519531</ele>
        <time>2015-03-12T14:17:16Z</time>
      </trkpt>
      <trkpt lat="42.81285" lon="-0.43903">
        <ele>1872.3049316406</ele>
        <time>2015-03-12T14:17:38Z</time>
      </trkpt>
      <trkpt lat="42.81283" lon="-0.4388">
        <ele>1870.8630371094</ele>
        <time>2015-03-12T14:17:55Z</time>
      </trkpt>
      <trkpt lat="42.81282" lon="-0.43866">
        <ele>1867.498046875</ele>
        <time>2015-03-12T14:18:06Z</time>
      </trkpt>
      <trkpt lat="42.81282" lon="-0.43864">
        <ele>1867.498046875</ele>
        <time>2015-03-12T14:18:07Z</time>
      </trkpt>
      <trkpt lat="42.8128" lon="-0.43842">
        <ele>1866.0561523438</ele>
        <time>2015-03-12T14:18:24Z</time>
      </trkpt>
      <trkpt lat="42.81279" lon="-0.43819">
        <ele>1864.6142578125</ele>
        <time>2015-03-12T14:18:42Z</time>
      </trkpt>
      <trkpt lat="42.81276" lon="-0.43791">
        <ele>1862.6916503906</ele>
        <time>2015-03-12T14:19:03Z</time>
      </trkpt>
      <trkpt lat="42.81273" lon="-0.43766">
        <ele>1861.2497558594</ele>
        <time>2015-03-12T14:19:22Z</time>
      </trkpt>
      <trkpt lat="42.81271" lon="-0.4374">
        <ele>1860.2883300781</ele>
        <time>2015-03-12T14:19:42Z</time>
      </trkpt>
      <trkpt lat="42.8127" lon="-0.43714">
        <ele>1857.8852539062</ele>
        <time>2015-03-12T14:20:02Z</time>
      </trkpt>
      <trkpt lat="42.81269" lon="-0.43701">
        <ele>1854.5205078125</ele>
        <time>2015-03-12T14:20:13Z</time>
      </trkpt>
      <trkpt lat="42.81268" lon="-0.43684">
        <ele>1852.1171875</ele>
        <time>2015-03-12T14:20:28Z</time>
      </trkpt>
      <trkpt lat="42.81264" lon="-0.43663">
        <ele>1849.7138671875</ele>
        <time>2015-03-12T14:20:46Z</time>
      </trkpt>
      <trkpt lat="42.81259" lon="-0.43642">
        <ele>1847.310546875</ele>
        <time>2015-03-12T14:21:04Z</time>
      </trkpt>
      <trkpt lat="42.81256" lon="-0.43621">
        <ele>1844.4265136719</ele>
        <time>2015-03-12T14:21:22Z</time>
      </trkpt>
      <trkpt lat="42.81252" lon="-0.43597">
        <ele>1842.0234375</ele>
        <time>2015-03-12T14:21:41Z</time>
      </trkpt>
      <trkpt lat="42.8125" lon="-0.43571">
        <ele>1838.6589355469</ele>
        <time>2015-03-12T14:22:01Z</time>
      </trkpt>
      <trkpt lat="42.81248" lon="-0.43545">
        <ele>1835.7746582031</ele>
        <time>2015-03-12T14:22:21Z</time>
      </trkpt>
      <trkpt lat="42.81248" lon="-0.4352">
        <ele>1833.3713378906</ele>
        <time>2015-03-12T14:22:40Z</time>
      </trkpt>
      <trkpt lat="42.81249" lon="-0.4349">
        <ele>1830.9682617188</ele>
        <time>2015-03-12T14:23:02Z</time>
      </trkpt>
      <trkpt lat="42.81249" lon="-0.43467">
        <ele>1829.0454101562</ele>
        <time>2015-03-12T14:23:19Z</time>
      </trkpt>
      <trkpt lat="42.81248" lon="-0.43443">
        <ele>1826.6423339844</ele>
        <time>2015-03-12T14:23:38Z</time>
      </trkpt>
      <trkpt lat="42.81248" lon="-0.43422">
        <ele>1823.2778320312</ele>
        <time>2015-03-12T14:23:56Z</time>
      </trkpt>
      <trkpt lat="42.81246" lon="-0.43396">
        <ele>1820.3937988281</ele>
        <time>2015-03-12T14:24:15Z</time>
      </trkpt>
      <trkpt lat="42.81243" lon="-0.4337">
        <ele>1818.4709472656</ele>
        <time>2015-03-12T14:24:35Z</time>
      </trkpt>
      <trkpt lat="42.81239" lon="-0.43344">
        <ele>1815.1064453125</ele>
        <time>2015-03-12T14:24:54Z</time>
      </trkpt>
      <trkpt lat="42.81233" lon="-0.43316">
        <ele>1812.2224121094</ele>
        <time>2015-03-12T14:25:15Z</time>
      </trkpt>
      <trkpt lat="42.81232" lon="-0.43288">
        <ele>1809.3386230469</ele>
        <time>2015-03-12T14:25:35Z</time>
      </trkpt>
      <trkpt lat="42.81231" lon="-0.43259">
        <ele>1806.4545898438</ele>
        <time>2015-03-12T14:25:56Z</time>
      </trkpt>
      <trkpt lat="42.81229" lon="-0.43242">
        <ele>1803.5705566406</ele>
        <time>2015-03-12T14:26:09Z</time>
      </trkpt>
      <trkpt lat="42.81225" lon="-0.43222">
        <ele>1800.2060546875</ele>
        <time>2015-03-12T14:26:24Z</time>
      </trkpt>
      <trkpt lat="42.81221" lon="-0.43192">
        <ele>1796.8413085938</ele>
        <time>2015-03-12T14:26:47Z</time>
      </trkpt>
      <trkpt lat="42.8122" lon="-0.43174">
        <ele>1793.4768066406</ele>
        <time>2015-03-12T14:27:00Z</time>
      </trkpt>
      <trkpt lat="42.8122" lon="-0.43154">
        <ele>1791.5541992188</ele>
        <time>2015-03-12T14:27:15Z</time>
      </trkpt>
      <trkpt lat="42.81216" lon="-0.43131">
        <ele>1788.1896972656</ele>
        <time>2015-03-12T14:27:34Z</time>
      </trkpt>
      <trkpt lat="42.81216" lon="-0.43114">
        <ele>1785.3054199219</ele>
        <time>2015-03-12T14:27:49Z</time>
      </trkpt>
      <trkpt lat="42.81215" lon="-0.43089">
        <ele>1781.4602050781</ele>
        <time>2015-03-12T14:28:07Z</time>
      </trkpt>
      <trkpt lat="42.81216" lon="-0.43084">
        <ele>1780.0183105469</ele>
        <time>2015-03-12T14:28:11Z</time>
      </trkpt>
      <trkpt lat="42.8122" lon="-0.43053">
        <ele>1778.095703125</ele>
        <time>2015-03-12T14:28:32Z</time>
      </trkpt>
      <trkpt lat="42.81222" lon="-0.43029">
        <ele>1778.095703125</ele>
        <time>2015-03-12T14:28:49Z</time>
      </trkpt>
      <trkpt lat="42.81224" lon="-0.43">
        <ele>1777.1345214844</ele>
        <time>2015-03-12T14:29:10Z</time>
      </trkpt>
      <trkpt lat="42.81226" lon="-0.42974">
        <ele>1776.1730957031</ele>
        <time>2015-03-12T14:29:29Z</time>
      </trkpt>
      <trkpt lat="42.8123" lon="-0.42949">
        <ele>1776.6538085938</ele>
        <time>2015-03-12T14:29:48Z</time>
      </trkpt>
      <trkpt lat="42.81232" lon="-0.42917">
        <ele>1777.1345214844</ele>
        <time>2015-03-12T14:30:11Z</time>
      </trkpt>
      <trkpt lat="42.81234" lon="-0.42889">
        <ele>1778.095703125</ele>
        <time>2015-03-12T14:30:32Z</time>
      </trkpt>
      <trkpt lat="42.81236" lon="-0.42857">
        <ele>1777.6149902344</ele>
        <time>2015-03-12T14:30:55Z</time>
      </trkpt>
      <trkpt lat="42.81238" lon="-0.4283">
        <ele>1778.095703125</ele>
        <time>2015-03-12T14:31:15Z</time>
      </trkpt>
      <trkpt lat="42.81241" lon="-0.42809">
        <ele>1777.6149902344</ele>
        <time>2015-03-12T14:31:31Z</time>
      </trkpt>
      <trkpt lat="42.81244" lon="-0.42791">
        <ele>1774.7312011719</ele>
        <time>2015-03-12T14:31:46Z</time>
      </trkpt>
      <trkpt lat="42.81249" lon="-0.42765">
        <ele>1772.80859375</ele>
        <time>2015-03-12T14:32:07Z</time>
      </trkpt>
      <trkpt lat="42.81256" lon="-0.42746">
        <ele>1769.4438476562</ele>
        <time>2015-03-12T14:32:23Z</time>
      </trkpt>
      <trkpt lat="42.8127" lon="-0.42715">
        <ele>1767.5209960938</ele>
        <time>2015-03-12T14:32:48Z</time>
      </trkpt>
      <trkpt lat="42.81273" lon="-0.42685">
        <ele>1765.1179199219</ele>
        <time>2015-03-12T14:33:09Z</time>
      </trkpt>
      <trkpt lat="42.81274" lon="-0.42679">
        <ele>1764.6372070312</ele>
        <time>2015-03-12T14:33:13Z</time>
      </trkpt>
      <trkpt lat="42.8128" lon="-0.42654">
        <ele>1763.1953125</ele>
        <time>2015-03-12T14:33:31Z</time>
      </trkpt>
      <trkpt lat="42.8129" lon="-0.42625">
        <ele>1760.3112792969</ele>
        <time>2015-03-12T14:33:52Z</time>
      </trkpt>
      <trkpt lat="42.81297" lon="-0.42601">
        <ele>1757.4274902344</ele>
        <time>2015-03-12T14:34:10Z</time>
      </trkpt>
      <trkpt lat="42.81304" lon="-0.42584">
        <ele>1754.0627441406</ele>
        <time>2015-03-12T14:34:25Z</time>
      </trkpt>
      <trkpt lat="42.81312" lon="-0.42557">
        <ele>1751.1787109375</ele>
        <time>2015-03-12T14:34:46Z</time>
      </trkpt>
      <trkpt lat="42.81313" lon="-0.42556">
        <ele>1751.6594238281</ele>
        <time>2015-03-12T14:34:47Z</time>
      </trkpt>
      <trkpt lat="42.81314" lon="-0.42553">
        <ele>1751.1787109375</ele>
        <time>2015-03-12T14:34:49Z</time>
      </trkpt>
      <trkpt lat="42.81316" lon="-0.42548">
        <ele>1750.6979980469</ele>
        <time>2015-03-12T14:34:53Z</time>
      </trkpt>
      <trkpt lat="42.81325" lon="-0.42521">
        <ele>1747.3334960938</ele>
        <time>2015-03-12T14:35:13Z</time>
      </trkpt>
      <trkpt lat="42.81332" lon="-0.42492">
        <ele>1747.3334960938</ele>
        <time>2015-03-12T14:35:35Z</time>
      </trkpt>
      <trkpt lat="42.81339" lon="-0.42469">
        <ele>1747.3334960938</ele>
        <time>2015-03-12T14:35:53Z</time>
      </trkpt>
      <trkpt lat="42.81344" lon="-0.42443">
        <ele>1746.8527832031</ele>
        <time>2015-03-12T14:36:12Z</time>
      </trkpt>
      <trkpt lat="42.81345" lon="-0.42441">
        <ele>1746.8527832031</ele>
        <time>2015-03-12T14:36:13Z</time>
      </trkpt>
      <trkpt lat="42.81348" lon="-0.42414">
        <ele>1746.3723144531</ele>
        <time>2015-03-12T14:36:33Z</time>
      </trkpt>
      <trkpt lat="42.81351" lon="-0.42385">
        <ele>1744.4494628906</ele>
        <time>2015-03-12T14:36:52Z</time>
      </trkpt>
      <trkpt lat="42.81352" lon="-0.4236">
        <ele>1743.0075683594</ele>
        <time>2015-03-12T14:37:10Z</time>
      </trkpt>
      <trkpt lat="42.81355" lon="-0.42337">
        <ele>1739.6428222656</ele>
        <time>2015-03-12T14:37:26Z</time>
      </trkpt>
      <trkpt lat="42.81359" lon="-0.42303">
        <ele>1736.7587890625</ele>
        <time>2015-03-12T14:37:49Z</time>
      </trkpt>
      <trkpt lat="42.81362" lon="-0.42275">
        <ele>1733.3942871094</ele>
        <time>2015-03-12T14:38:08Z</time>
      </trkpt>
      <trkpt lat="42.81366" lon="-0.42246">
        <ele>1731.9523925781</ele>
        <time>2015-03-12T14:38:28Z</time>
      </trkpt>
      <trkpt lat="42.81371" lon="-0.42216">
        <ele>1731.4716796875</ele>
        <time>2015-03-12T14:38:50Z</time>
      </trkpt>
      <trkpt lat="42.81374" lon="-0.42184">
        <ele>1730.9912109375</ele>
        <time>2015-03-12T14:39:13Z</time>
      </trkpt>
      <trkpt lat="42.81376" lon="-0.4216">
        <ele>1730.5104980469</ele>
        <time>2015-03-12T14:39:30Z</time>
      </trkpt>
      <trkpt lat="42.81376" lon="-0.42125">
        <ele>1728.587890625</ele>
        <time>2015-03-12T14:39:53Z</time>
      </trkpt>
      <trkpt lat="42.81374" lon="-0.42105">
        <ele>1725.2231445312</ele>
        <time>2015-03-12T14:40:08Z</time>
      </trkpt>
      <trkpt lat="42.81365" lon="-0.42082">
        <ele>1723.7810058594</ele>
        <time>2015-03-12T14:40:28Z</time>
      </trkpt>
      <trkpt lat="42.81358" lon="-0.42073">
        <ele>1724.2619628906</ele>
        <time>2015-03-12T14:40:43Z</time>
      </trkpt>
      <trkpt lat="42.81366" lon="-0.42042">
        <ele>1725.2231445312</ele>
        <time>2015-03-12T14:41:07Z</time>
      </trkpt>
      <trkpt lat="42.8137" lon="-0.42024">
        <ele>1727.1459960938</ele>
        <time>2015-03-12T14:41:23Z</time>
      </trkpt>
      <trkpt lat="42.81375" lon="-0.42001">
        <ele>1729.068359375</ele>
        <time>2015-03-12T14:41:43Z</time>
      </trkpt>
      <trkpt lat="42.81382" lon="-0.41977">
        <ele>1730.9912109375</ele>
        <time>2015-03-12T14:42:03Z</time>
      </trkpt>
      <trkpt lat="42.81389" lon="-0.41953">
        <ele>1731.4716796875</ele>
        <time>2015-03-12T14:42:22Z</time>
      </trkpt>
      <trkpt lat="42.81394" lon="-0.4193">
        <ele>1732.9135742188</ele>
        <time>2015-03-12T14:42:40Z</time>
      </trkpt>
      <trkpt lat="42.814" lon="-0.41911">
        <ele>1734.3557128906</ele>
        <time>2015-03-12T14:42:57Z</time>
      </trkpt>
      <trkpt lat="42.81406" lon="-0.41894">
        <ele>1734.3557128906</ele>
        <time>2015-03-12T14:43:12Z</time>
      </trkpt>
      <trkpt lat="42.81412" lon="-0.41874">
        <ele>1734.8364257812</ele>
        <time>2015-03-12T14:43:29Z</time>
      </trkpt>
      <trkpt lat="42.81419" lon="-0.41856">
        <ele>1737.2395019531</ele>
        <time>2015-03-12T14:43:47Z</time>
      </trkpt>
      <trkpt lat="42.81423" lon="-0.41841">
        <ele>1737.7202148438</ele>
        <time>2015-03-12T14:44:02Z</time>
      </trkpt>
      <trkpt lat="42.81425" lon="-0.41827">
        <ele>1739.6428222656</ele>
        <time>2015-03-12T14:44:18Z</time>
      </trkpt>
      <trkpt lat="42.81427" lon="-0.41819">
        <ele>1740.6042480469</ele>
        <time>2015-03-12T14:44:35Z</time>
      </trkpt>
      <trkpt lat="42.81428" lon="-0.41814">
        <ele>1740.1237792969</ele>
        <time>2015-03-12T14:45:05Z</time>
      </trkpt>
      <trkpt lat="42.81426" lon="-0.41819">
        <ele>1740.6042480469</ele>
        <time>2015-03-12T14:45:27Z</time>
      </trkpt>
      <trkpt lat="42.81429" lon="-0.41818">
        <ele>1740.6042480469</ele>
        <time>2015-03-12T14:45:38Z</time>
      </trkpt>
      <trkpt lat="42.81434" lon="-0.41816">
        <ele>1740.6042480469</ele>
        <time>2015-03-12T14:45:44Z</time>
      </trkpt>
      <trkpt lat="42.81439" lon="-0.41814">
        <ele>1740.1237792969</ele>
        <time>2015-03-12T14:45:50Z</time>
      </trkpt>
      <trkpt lat="42.81456" lon="-0.41808">
        <ele>1738.2009277344</ele>
        <time>2015-03-12T14:46:08Z</time>
      </trkpt>
      <trkpt lat="42.81458" lon="-0.41809">
        <ele>1738.2009277344</ele>
        <time>2015-03-12T14:46:26Z</time>
      </trkpt>
      <trkpt lat="42.81457" lon="-0.41809">
        <ele>1738.2009277344</ele>
        <time>2015-03-12T14:46:45Z</time>
      </trkpt>
      <trkpt lat="42.81457" lon="-0.41809">
        <ele>1738.2009277344</ele>
        <time>2015-03-12T14:46:50Z</time>
      </trkpt>
    </trkseg>
  </trk>
</gpx>